Return to Metar
SPECI CYNL 032052Z AUTO 06013G19KT SCT021 BKN029 12/08 A3009 RMK AO1 WSHFT (20)48 SLP195
SPECI CYNL 032048Z AUTO 04012G19KT SCT020 BKN037 13/09 A3009 RMK AO1 WSHFT (20)48 SLP193
METAR CYNL 032000Z AUTO 05011G16KT FEW018 SCT026 BKN039 13/08 A3007 RMK AO1 SLP189
SPECI CYNL 031959Z AUTO 06011KT FEW018 SCT025 BKN039 13/08 A3007 RMK AO1 SLP189
SPECI CYNL 031957Z AUTO 06009G16KT FEW018 BKN025 13/08 A3007 RMK AO1 SLP188
SPECI CYNL 031956Z AUTO 07009G16KT BKN022 13/09 A3007 RMK AO1 SLP188
SPECI CYNL 031929Z AUTO 06009KT SCT016 BKN140 13/09 A3006 RMK AO1 SLP184
SPECI CYNL 031916Z AUTO 08010KT FEW012 BKN017 BKN021 14/09 A3006 RMK AO1 SLP183
SPECI CYNL 031914Z AUTO 08010KT BKN014 BKN021 14/09 A3006 RMK AO1 SLP182
SPECI CYNL 031910Z AUTO 07009KT SCT012 BKN015 BKN020 14/09 A3006 RMK AO1 SLP182
METAR CYNL 031900Z AUTO 06008KT BKN012 13/09 A3005 RMK AO1 SLP182
SPECI CYNL 031855Z AUTO 07009KT BKN011 13/09 A3005 RMK AO1 SLP181
SPECI CYNL 031853Z AUTO 07009KT SCT011 BKN015 13/10 A3005 RMK AO1 SLP181
SPECI CYNL 031850Z AUTO 06007KT BKN011 13/11 A3005 RMK AO1 SLP181
SPECI CYNL 031849Z AUTO 06008KT SCT011 BKN017 13/10 A3005 RMK AO1 SLP181
METAR CYNL 031800Z AUTO 05007KT FEW007 11/10 A3005 RMK AO1 SLP180
SPECI CYNL 031748Z AUTO 07006KT FEW007 SCT019 11/10 A3005 RMK AO1 SLP180
SPECI CYNL 031732Z AUTO 06006KT FEW013 SCT019 BKN048 11/09 A3004 RMK AO1 SLP178
SPECI CYNL 031727Z AUTO 04008G16KT FEW012 SCT016 BKN024 12/09 A3004 RMK AO1 SLP178
SPECI CYNL 031724Z AUTO 05009G16KT SCT013 BKN025 12/09 A3004 RMK AO1 SLP178
SPECI CYNL 031722Z AUTO 05009G16KT SCT012 BKN017 12/09 A3004 RMK AO1 SLP178
SPECI CYNL 031721Z AUTO 05012KT BKN014 12/09 A3004 RMK AO1 SLP177
SPECI CYNL 031716Z AUTO 05012KT SCT012 BKN023 12/09 A3004 RMK AO1 SLP176
SPECI CYNL 031711Z AUTO 02005KT FEW012 SCT017 BKN042 12/09 A3004 RMK AO1 SLP175
SPECI CYNL 031707Z AUTO 00004KT SCT014 BKN026 12/09 A3004 RMK AO1 SLP175
SPECI CYNL 031706Z AUTO 00005KT FEW009 BKN016 12/09 A3004 RMK AO1 SLP175
SPECI CYNL 031702Z AUTO 35005KT VV015 12/09 A3003 RMK AO1 SLP175
METAR CYNL 031700Z AUTO 35005KT VV014 12/10 A3003 RMK AO1 SLP174
SPECI CYNL 031657Z AUTO 35007KT VV013 12/10 A3003 RMK AO1 SLP173
SPECI CYNL 031653Z AUTO 35006KT VV018 13/11 A3003 RMK AO1 SLP172
METAR CYNL 031600Z AUTO 01003KT FEW014 SCT021 BKN056 13/09 A3002 RMK AO1 SLP170
METAR CYNL 031500Z AUTO 00004KT SCT098 13/09 A3002 RMK AO1 SLP166
METAR CYNL 031400Z AUTO 02005KT FEW008 SCT078 12/09 A3002 RMK AO1 SLP165
SPECI CYNL 031355Z AUTO 34002KT FEW007 SCT078 11/09 A3002 RMK AO1 SLP165
METAR CYNL 031300Z AUTO 33002KT BKN092 10/09 A3001 RMK AO1 SLP165
METAR CYNL 031200Z AUTO 01003KT FEW094 09/09 A3000 RMK AO1 SLP163
METAR CYNL 031100Z AUTO 01005KT CLR 09/08 A2999 RMK AO1 SLP159
METAR CYNL 031000Z AUTO 35006KT CLR 08/07 A2998 RMK AO1 SLP157
METAR CYNL 030900Z AUTO 34005KT CLR 08/07 A2998 RMK AO1 SLP154
METAR CYNL 030800Z AUTO 32005KT CLR 09/07 A2998 RMK AO1 SLP152
METAR CYNL 030700Z AUTO 32004KT FEW078 10/07 A2997 RMK AO1 SLP150
METAR CYNL 030600Z AUTO 31003KT BKN094 10/08 A2996 RMK AO1 SLP148
METAR CYNL 030500Z AUTO 28002KT SCT100 11/09 A2997 RMK AO1 SLP151
METAR CYNL 030400Z AUTO 03002KT FEW038 BKN054 12/08 A2997 RMK AO1 SLP151
METAR CYNL 030300Z AUTO 33003KT CLR 14/09 A2996 RMK AO1 SLP143
METAR CYNL 030200Z AUTO 31005KT FEW070 14/08 A2995 RMK AO1 SLP141
METAR CYNL 030100Z AUTO 26004KT SCT060 13/08 A2994 RMK AO1 PRESFR SLP139
METAR CYNL 030000Z AUTO 30007KT SCT076 13/08 A2997 RMK AO1 SLP149
METAR CYNL 022300Z AUTO 34006KT SCT072 13/08 A2997 RMK AO1 SLP150
METAR CYNL 022200Z AUTO 02007KT SCT078 14/09 A2997 RMK AO1 SLP150
METAR CYNL 022100Z AUTO 33005KT FEW086 SCT200 16/07 A2997 RMK AO1 SLP146
METAR CYNL 022000Z AUTO 29004KT FEW084 SCT190 14/09 A2997 RMK AO1 SLP150
METAR CYNL 021900Z AUTO 28006KT SCT064 15/07 A2998 RMK AO1 SLP152
METAR CYNL 021800Z AUTO 28004KT CLR 13/09 A2998 RMK AO1 SLP155
METAR CYNL 021700Z AUTO 27005KT FEW030 SCT047 BKN066 12/09 A2999 RMK AO1 SLP157
SPECI CYNL 021635Z AUTO 25005KT FEW009 BKN047 13/08 A2998 RMK AO1 SLP155
SPECI CYNL 021626Z AUTO 27008KT VV031 13/07 A2999 RMK AO1 SLP155
SPECI CYNL 021623Z AUTO 30006KT VV025 14/07 A2999 RMK AO1 SLP156
METAR CYNL 021600Z AUTO 28007KT SCT064 14/06 A2999 RMK AO1 SLP156
METAR CYNL 021500Z AUTO 26006KT BKN064 OVC210 13/05 A2999 RMK AO1 SLP156
METAR CYNL 021400Z AUTO 28007KT FEW088 14/05 A3000 RMK AO1 SLP158
METAR CYNL 021300Z AUTO 26006KT FEW074 12/03 A3000 RMK AO1 SLP157
METAR CYNL 021200Z AUTO 26004KT FEW076 12/03 A3002 RMK AO1 SLP162
METAR CYNL 021100Z AUTO 27005KT SCT094 12/02 A3002 RMK AO1 SLP165
METAR CYNL 021000Z AUTO 27007KT SCT110 OVC150 12/02 A3003 RMK AO1 SLP168
METAR CYNL 020900Z AUTO 26006KT CLR 12/02 A3004 RMK AO1 SLP169
METAR CYNL 020800Z AUTO 26004KT CLR 11/02 A3005 RMK AO1 SLP172
METAR CYNL 020700Z AUTO 28004KT FEW084 12/03 A3005 RMK AO1 SLP176
METAR CYNL 020600Z AUTO 28005KT SCT094 12/03 A3005 RMK AO1 SLP176
METAR CYNL 020500Z AUTO 28004KT BKN090 12/03 A3006 RMK AO1 SLP179
METAR CYNL 020400Z AUTO 26003KT BKN086 14/04 A3006 RMK AO1 SLP178
METAR CYNL 020300Z AUTO 30003KT OVC082 16/01 A3007 RMK AO1 SLP179
METAR CYNL 020200Z AUTO 34008KT OVC086 17/00 A3007 RMK AO1 SLP180
METAR CYNL 020100Z AUTO 30008KT BKN086 17/00 A3007 RMK AO1 SLP182
METAR CYNL 020000Z AUTO 33007KT BKN076 17/M00 A3008 RMK AO1 SLP186
METAR CYNL 012300Z AUTO 31011G17KT BKN076 17/M01 A3008 RMK AO1 SLP189
METAR CYNL 012200Z AUTO 35010G15KT 320V020 SCT072 17/M00 A3009 RMK AO1 WSHFT (21)50 SLP193
SPECI CYNL 012150Z AUTO 33012KT 290V020 SCT072 BKN180 18/00 A3009 RMK AO1 WSHFT (21)50 SLP193
METAR CYNL 012100Z AUTO 00008KT SCT072 17/M00 A3010 RMK AO1 SLP195
METAR CYNL 012000Z AUTO 33009G15KT SCT068 BKN140 16/01 A3010 RMK AO1 SLP198
SPECI CYNL 011919Z AUTO 00011G18KT SCT062 16/M00 A3010 RMK AO1 WSHFT (19)19 SLP196
SPECI CYNL 011906Z AUTO 31010G16KT SCT064 16/M01 A3009 RMK AO1 WSHFT (19)06 SLP194
METAR CYNL 011900Z AUTO 34010G16KT FEW064 SCT200 16/M01 A3009 RMK AO1 SLP194
METAR CYNL 011800Z AUTO 32007KT SCT056 15/01 A3010 RMK AO1 SLP196
METAR CYNL 011700Z AUTO 32007G15KT FEW048 SCT058 14/02 A3009 RMK AO1 SLP194
METAR CYNL 011600Z AUTO 33008KT FEW046 13/02 A3010 RMK AO1 SLP197
METAR CYNL 011500Z AUTO 35008G15KT CLR 12/02 A3009 RMK AO1 SLP196
METAR CYNL 011400Z AUTO 00008G16KT CLR 11/03 A3009 RMK AO1 SLP195
METAR CYNL 011300Z AUTO 35009KT CLR 10/04 A3008 RMK AO1 SLP194
METAR CYNL 011200Z AUTO 33007KT CLR 08/04 A3007 RMK AO1 SLP191
METAR CYNL 011100Z AUTO 34006KT CLR 07/04 A3006 RMK AO1 SLP189
METAR CYNL 011000Z AUTO 34007KT CLR 06/04 A3005 RMK AO1 SLP186
METAR CYNL 010900Z AUTO 32005KT CLR 06/04 A3005 RMK AO1 SLP183
METAR CYNL 010800Z AUTO 33006KT CLR 07/04 A3004 RMK AO1 SLP180
METAR CYNL 010700Z AUTO 34007KT CLR 07/04 A3003 RMK AO1 SLP177
METAR CYNL 010600Z AUTO 33008KT FEW080 BKN110 09/03 A3002 RMK AO1 SLP176
METAR CYNL 010500Z AUTO 33007G15KT SCT062 BKN074 09/03 A3001 RMK AO1 SLP169
METAR CYNL 010400Z AUTO 33007KT SCT068 09/03 A3000 RMK AO1 SLP167
METAR CYNL 010300Z AUTO 34007KT FEW042 BKN064 10/03 A3000 RMK AO1 SLP165
METAR CYNL 010200Z AUTO 35013G20KT FEW050 11/01 A2999 RMK AO1 SLP162
METAR CYNL 010100Z AUTO 34014G20KT FEW037 12/02 A2998 RMK AO1 SLP158
METAR CYNL 010000Z AUTO 32009G18KT FEW028 SCT054 12/05 A2996 RMK AO1 SLP153
METAR CYNL 302300Z AUTO 32016G24KT FEW027 SCT034 12/02 A2995 RMK AO1 SLP149
METAR CYNL 302200Z AUTO 32011G22KT FEW026 14/03 A2993 RMK AO1 SLP142
METAR CYNL 302100Z AUTO 34013G24KT FEW013 SCT040 11/05 A2992 RMK AO1 PRESRR SLP141
METAR CYNL 302000Z AUTO 34018G26KT FEW031 SCT068 12/02 A2989 RMK AO1 SLP132
METAR CYNL 301900Z AUTO 34013G24KT FEW023 SCT032 09/04 A2988 RMK AO1 PRESRR SLP130
SPECI CYNL 301855Z AUTO 34014G25KT SCT027 BKN190 09/05 A2988 RMK AO1 SLP129
SPECI CYNL 301854Z AUTO 33015G25KT VV027 09/05 A2988 RMK AO1 SLP128
METAR CYNL 301800Z AUTO 31013G22KT BKN036 11/02 A2985 RMK AO1 SLP119
METAR CYNL 301700Z AUTO 31013G21KT SCT032 10/02 A2985 RMK AO1 SLP116
METAR CYNL 301600Z AUTO 32011G23KT FEW038 SCT047 10/00 A2983 RMK AO1 SLP110
METAR CYNL 301500Z AUTO 33012G26KT BKN040 09/M01 A2982 RMK AO1 SLP107
METAR CYNL 301400Z AUTO 31010G20KT SCT110 08/M01 A2981 RMK AO1 SLP105
METAR CYNL 301300Z AUTO 31009G17KT FEW120 07/M01 A2982 RMK AO1 SLP108
METAR CYNL 301200Z AUTO 31009KT CLR 07/M00 A2984 RMK AO1 SLP112
METAR CYNL 301100Z AUTO 29006KT FEW054 06/01 A2985 RMK AO1 SLP114
METAR CYNL 301000Z AUTO 27004KT FEW076 06/01 A2986 RMK AO1 SLP119
METAR CYNL 300900Z AUTO 29004KT BKN062 06/01 A2987 RMK AO1 SLP122
METAR CYNL 300800Z AUTO 31004KT BKN062 06/01 A2988 RMK AO1 SLP126
METAR CYNL 300700Z AUTO 32003KT SCT070 06/01 A2988 RMK AO1 SLP127
METAR CYNL 300600Z AUTO 02005KT FEW082 OVC140 07/01 A2989 RMK AO1 SLP130
METAR CYNL 300500Z AUTO 02004KT BKN072 OVC140 08/M01 A2989 RMK AO1 SLP129
METAR CYNL 300400Z AUTO 33003KT BKN068 OVC140 09/M02 A2988 RMK AO1 SLP127
METAR CYNL 300300Z AUTO 33005G15KT OVC066 10/M03 A2989 RMK AO1 SLP128
METAR CYNL 300200Z AUTO 00010KT BKN062 10/M02 A2988 RMK AO1 SLP127
METAR CYNL 300100Z AUTO 01010G16KT SCT060 11/M03 A2987 RMK AO1 SLP123
METAR CYNL 300000Z AUTO 32010G16KT FEW054 13/M02 A2987 RMK AO1 SLP120
METAR CYNL 292300Z AUTO 31006G17KT SCT056 12/M01 A2986 RMK AO1 SLP117
METAR CYNL 292200Z AUTO 33010G17KT FEW056 13/M02 A2986 RMK AO1 SLP116
METAR CYNL 292100Z AUTO 34008G17KT BKN054 12/M01 A2986 RMK AO1 SLP115
METAR CYNL 292000Z AUTO 34008KT SCT049 12/M01 A2986 RMK AO1 SLP116
METAR CYNL 291900Z AUTO 00006G16KT SCT046 11/M02 A2986 RMK AO1 SLP116
METAR CYNL 291800Z AUTO 35010KT SCT044 10/M01 A2986 RMK AO1 SLP115
METAR CYNL 291700Z AUTO 33006KT BKN039 10/00 A2986 RMK AO1 SLP112
METAR CYNL 291600Z AUTO 03011KT FEW029 SCT037 09/00 A2985 RMK AO1 SLP111
SPECI CYNL 291548Z AUTO 00008G16KT BKN030 09/02 A2985 RMK AO1 SLP111
SPECI CYNL 291547Z AUTO 01009G16KT BKN029 09/02 A2985 RMK AO1 SLP111
SPECI CYNL 291530Z AUTO 01008G17KT BKN030 09/01 A2985 RMK AO1 SLP109
SPECI CYNL 291501Z AUTO 35007KT BKN025 09/02 A2985 RMK AO1 SLP109
METAR CYNL 291500Z AUTO 00007KT OVC024 09/02 A2985 RMK AO1 SLP109
SPECI CYNL 291454Z AUTO 02007KT BKN024 08/02 A2985 RMK AO1 SLP108
SPECI CYNL 291448Z AUTO 02009KT BKN025 08/02 A2984 RMK AO1 SLP109
SPECI CYNL 291445Z AUTO 01009KT BKN024 08/02 A2984 RMK AO1 SLP108
SPECI CYNL 291442Z AUTO 02009KT SCT023 BKN028 08/03 A2984 RMK AO1 SLP108
SPECI CYNL 291440Z AUTO 03009KT BKN022 08/03 A2984 RMK AO1 SLP107
SPECI CYNL 291439Z AUTO 04008KT SCT022 BKN026 08/03 A2984 RMK AO1 SLP107
METAR CYNL 291400Z AUTO 02008KT SCT017 BKN036 08/04 A2983 RMK AO1 SLP102
SPECI CYNL 291333Z AUTO 00009KT SCT012 OVC034 07/04 A2983 RMK AO1 SLP102
SPECI CYNL 291332Z AUTO 00009KT SCT012 BKN017 OVC033 07/04 A2983 RMK AO1 SLP102
SPECI CYNL 291308Z AUTO 03011G17KT OVC010 07/05 A2983 RMK AO1 SLP102
SPECI CYNL 291305Z AUTO 03013KT OVC009 07/05 A2982 RMK AO1 SLP101
SPECI CYNL 291304Z AUTO 03013KT FEW007 OVC010 07/05 A2982 RMK AO1 SLP101
METAR CYNL 291300Z AUTO 01008G16KT FEW006 OVC009 07/05 A2982 RMK AO1 SLP100
METAR CYNL 291200Z AUTO 00007KT BKN007 OVC017 08/08 A2980 RMK AO1 SLP092
SPECI CYNL 291159Z AUTO 35007KT BKN007 OVC017 08/08 A2980 RMK AO1 SLP092
SPECI CYNL 291153Z AUTO 35005KT FEW007 SCT010 OVC017 08/08 A2980 RMK AO1 SLP090
SPECI CYNL 291113Z AUTO 00008KT FEW009 BKN012 OVC016 09/09 A2979 RMK AO1 SLP087
SPECI CYNL 291112Z AUTO 00007KT FEW008 SCT012 BKN016 09/09 A2979 RMK AO1 SLP087
SPECI CYNL 291110Z AUTO 34005KT FEW008 BKN013 BKN016 09/09 A2979 RMK AO1 SLP086
METAR CYNL 291100Z AUTO 00004KT SCT008 BKN015 OVC052 09/09 A2979 RMK AO1 SLP085
SPECI CYNL 291059Z AUTO 00004KT SCT008 BKN015 OVC052 09/09 A2979 RMK AO1 SLP084
SPECI CYNL 291011Z AUTO 35007KT FEW009 SCT026 OVC040 10/10 A2978 RMK AO1 SLP080
SPECI CYNL 291005Z AUTO 00008KT FEW010 SCT017 OVC038 10/09 A2977 RMK AO1 SLP078
SPECI CYNL 291002Z AUTO 00009G15KT FEW008 SCT011 BKN026 10/09 A2978 RMK AO1 SLP079
METAR CYNL 291000Z AUTO 00008G17KT FEW008 SCT011 BKN017 10/10 A2978 RMK AO1 SLP079
SPECI CYNL 290953Z AUTO 35010G17KT FEW008 SCT012 BKN016 10/10 A2978 RMK AO1 SLP080
SPECI CYNL 290952Z AUTO 35012G17KT FEW008 SCT011 BKN013 10/10 A2978 RMK AO1 SLP080
SPECI CYNL 290951Z AUTO 35010G17KT FEW008 SCT011 BKN015 10/10 A2978 RMK AO1 SLP080
SPECI CYNL 290933Z AUTO 32005KT FEW009 BKN013 OVC024 11/10 A2977 RMK AO1 SLP077
SPECI CYNL 290921Z AUTO 30005KT BKN013 11/10 A2977 RMK AO1 SLP077
SPECI CYNL 290918Z AUTO 28004KT SCT013 BKN016 10/10 A2977 RMK AO1 SLP077
SPECI CYNL 290912Z AUTO 28004KT SCT015 BKN025 10/10 A2977 RMK AO1 SLP077
METAR CYNL 290900Z AUTO 28003KT FEW060 10/10 A2976 RMK AO1 SLP075
METAR CYNL 290800Z AUTO 00000KT FEW008 BKN066 BKN088 11/10 A2977 RMK AO1 SLP076
SPECI CYNL 290705Z AUTO 01008G17KT FEW009 BKN066 12/08 A2978 RMK AO1 PRESRR SLP080
METAR CYNL 290700Z AUTO 02013G18KT FEW012 BKN066 13/08 A2978 RMK AO1 PRESRR SLP078
SPECI CYNL 290642Z AUTO 30003KT FEW009 BKN070 14/07 A2975 RMK AO1 PRESFR SLP069
METAR CYNL 290600Z AUTO 25005KT FEW074 BKN120 15/05 A2976 RMK AO1 PRESFR SLP070
METAR CYNL 290500Z AUTO 23007KT BKN120 14/04 A2978 RMK AO1 PRESFR SLP079
METAR CYNL 290400Z AUTO 22006KT BKN120 15/04 A2980 RMK AO1 SLP086
METAR CYNL 290300Z AUTO 23005KT CLR 16/04 A2981 RMK AO1 PRESFR SLP090
METAR CYNL 290200Z AUTO 23007KT SCT110 17/03 A2984 RMK AO1 PRESFR SLP099
METAR CYNL 290100Z AUTO 25005KT BKN090 17/02 A2987 RMK AO1 PRESFR SLP111
METAR CYNL 290000Z AUTO 27007G15KT SCT088 BKN110 18/02 A2990 RMK AO1 SLP120
METAR CYNL 282300Z AUTO 27015G23KT FEW110 19/01 A2992 RMK AO1 PRESFR SLP127
METAR CYNL 282200Z AUTO 26011G16KT SCT096 19/00 A2995 RMK AO1 PRESFR SLP139
METAR CYNL 282100Z AUTO 27012KT SCT076 BKN100 18/00 A2997 RMK AO1 PRESFR SLP148
METAR CYNL 282000Z AUTO 27011G18KT FEW074 SCT096 18/01 A2999 RMK AO1 PRESFR SLP156
METAR CYNL 281900Z AUTO 26006KT FEW062 SCT150 18/01 A3002 RMK AO1 PRESFR SLP166
METAR CYNL 281800Z AUTO 24007KT FEW060 SCT180 16/02 A3005 RMK AO1 PRESFR SLP178
METAR CYNL 281700Z AUTO 32015G22KT 290V350 FEW031 SCT052 BKN240 14/05 A3007 RMK AO1 WSHFT (16)59 SLP188
SPECI CYNL 281659Z AUTO 31015G22KT 280V340 FEW032 SCT052 14/04 A3008 RMK AO1 WSHFT (16)59 SLP188
METAR CYNL 281600Z AUTO 29009G20KT CLR 16/05 A3008 RMK AO1 PRESFR SLP189
METAR CYNL 281500Z AUTO 27008KT FEW090 14/05 A3011 RMK AO1 SLP198
METAR CYNL 281400Z AUTO 32006KT FEW110 SCT200 13/06 A3013 RMK AO1 SLP204
METAR CYNL 281300Z AUTO 30009KT SCT054 BKN078 11/06 A3013 RMK AO1 SLP205
METAR CYNL 281200Z AUTO 29007KT BKN110 11/06 A3013 RMK AO1 SLP206
METAR CYNL 281100Z AUTO 27005KT OVC110 09/06 A3013 RMK AO1 SLP206
METAR CYNL 281000Z AUTO 29006KT OVC110 09/06 A3014 RMK AO1 SLP208
METAR CYNL 280900Z AUTO 31005KT CLR 09/06 A3013 RMK AO1 SLP207
METAR CYNL 280800Z AUTO 29004KT OVC110 09/06 A3013 RMK AO1 SLP210
METAR CYNL 280700Z AUTO 27004KT CLR 08/06 A3014 RMK AO1 SLP211
METAR CYNL 280600Z AUTO 27005KT CLR 08/06 A3014 RMK AO1 SLP214
METAR CYNL 280500Z AUTO 29003KT FEW100 10/06 A3015 RMK AO1 SLP217
METAR CYNL 280400Z AUTO 28005KT FEW050 11/05 A3015 RMK AO1 SLP216
METAR CYNL 280300Z AUTO 29005KT FEW058 BKN072 13/04 A3014 RMK AO1 SLP211
METAR CYNL 280200Z AUTO 30009KT CLR 14/04 A3014 RMK AO1 SLP210
METAR CYNL 280100Z AUTO 30011G16KT FEW078 13/03 A3014 RMK AO1 SLP212
METAR CYNL 280000Z AUTO 30009KT SCT056 15/02 A3015 RMK AO1 SLP213
SPECI CYNL 272313Z AUTO 31011KT FEW054 15/02 A3015 RMK AO1 WSHFT (23)13 SLP216
METAR CYNL 272300Z AUTO 35009G16KT FEW052 15/02 A3015 RMK AO1 SLP216
METAR CYNL 272200Z AUTO 35012G18KT FEW050 14/02 A3016 RMK AO1 SLP220
METAR CYNL 272100Z AUTO 34008KT 310V010 FEW046 SCT054 14/03 A3016 RMK AO1 SLP221
SPECI CYNL 272023Z AUTO 01012G21KT FEW041 13/04 A3017 RMK AO1 WSHFT (20)23 SLP223
METAR CYNL 272000Z AUTO 34011G16KT FEW038 SCT046 13/04 A3017 RMK AO1 SLP224
METAR CYNL 271900Z AUTO 34011G19KT FEW029 SCT049 12/04 A3017 RMK AO1 SLP223
METAR CYNL 271800Z AUTO 35010G17KT FEW028 11/05 A3017 RMK AO1 SLP223
METAR CYNL 271700Z AUTO 32008G17KT FEW035 11/05 A3015 RMK AO1 SLP217
SPECI CYNL 271631Z AUTO 35010G16KT SCT025 BKN034 BKN190 09/06 A3016 RMK AO1 SLP219
SPECI CYNL 271630Z AUTO 35009G17KT BKN029 BKN048 09/06 A3016 RMK AO1 SLP219
SPECI CYNL 271629Z AUTO 00009G17KT SCT026 BKN032 BKN042 09/06 A3016 RMK AO1 SLP218
SPECI CYNL 271628Z AUTO 00011G17KT BKN029 BKN048 09/06 A3016 RMK AO1 SLP218
SPECI CYNL 271627Z AUTO 35013KT FEW020 BKN030 BKN042 09/06 A3015 RMK AO1 SLP218
SPECI CYNL 271620Z AUTO 34010G17KT FEW021 BKN028 BKN042 10/05 A3015 RMK AO1 SLP216
SPECI CYNL 271619Z AUTO 34008KT FEW021 SCT027 BKN032 10/05 A3015 RMK AO1 SLP215
SPECI CYNL 271617Z AUTO 33006KT FEW021 BKN028 BKN190 10/05 A3015 RMK AO1 SLP215
SPECI CYNL 271615Z AUTO 34005KT FEW021 SCT027 BKN041 10/05 A3015 RMK AO1 SLP215
SPECI CYNL 271611Z AUTO 33008KT BKN025 BKN190 10/05 A3015 RMK AO1 SLP214
SPECI CYNL 271602Z AUTO 33006KT BKN022 10/06 A3014 RMK AO1 SLP214
SPECI CYNL 271601Z AUTO 33008KT SCT021 BKN030 10/06 A3014 RMK AO1 SLP214
METAR CYNL 271600Z AUTO 33008KT BKN022 09/06 A3014 RMK AO1 SLP214
SPECI CYNL 271534Z AUTO 00006KT SCT026 BKN042 09/06 A3014 RMK AO1 SLP212
SPECI CYNL 271530Z AUTO 01005KT FEW023 BKN029 BKN170 09/05 A3014 RMK AO1 WSHFT (15)17 SLP213
SPECI CYNL 271526Z AUTO 01007KT SCT025 BKN031 BKN038 08/05 A3014 RMK AO1 WSHFT (15)17 SLP214
SPECI CYNL 271525Z AUTO 01006KT BKN027 BKN038 08/05 A3014 RMK AO1 WSHFT (15)17 SLP213
SPECI CYNL 271524Z AUTO 02008KT FEW022 BKN031 08/05 A3014 RMK AO1 WSHFT (15)17 SLP213
SPECI CYNL 271517Z AUTO 02012G17KT BKN027 09/05 A3014 RMK AO1 WSHFT (15)17 SLP212
SPECI CYNL 271512Z AUTO 35013KT BKN028 09/05 A3014 RMK AO1 SLP210
METAR CYNL 271500Z AUTO 33010G15KT FEW023 SCT033 10/05 A3013 RMK AO1 SLP207
METAR CYNL 271400Z AUTO 35007G15KT FEW012 SCT017 08/05 A3012 RMK AO1 SLP204
SPECI CYNL 271353Z AUTO 34010G16KT SCT014 09/05 A3012 RMK AO1 PRESRR SLP203
SPECI CYNL 271340Z AUTO 33009KT SCT013 BKN016 BKN023 09/06 A3011 RMK AO1 PRESRR SLP202
SPECI CYNL 271338Z AUTO 34009KT BKN013 BKN026 09/06 A3011 RMK AO1 PRESRR SLP202
SPECI CYNL 271335Z AUTO 34009KT SCT012 BKN015 BKN021 08/06 A3011 RMK AO1 PRESRR SLP202
SPECI CYNL 271330Z AUTO 34008KT BKN013 OVC031 08/06 A3011 RMK AO1 PRESRR SLP202
SPECI CYNL 271329Z AUTO 34008KT SCT012 BKN016 BKN027 08/06 A3011 RMK AO1 PRESRR SLP202
SPECI CYNL 271328Z AUTO 34008KT BKN012 BKN028 OVC033 08/06 A3011 RMK AO1 PRESRR SLP202
SPECI CYNL 271325Z AUTO 34007KT SCT012 BKN017 BKN026 08/06 A3011 RMK AO1 PRESRR SLP202
SPECI CYNL 271324Z AUTO 34007KT FEW011 BKN014 OVC030 08/06 A3011 RMK AO1 PRESRR SLP202
SPECI CYNL 271322Z AUTO 33008KT FEW011 SCT014 BKN019 08/06 A3011 RMK AO1 PRESRR SLP201
SPECI CYNL 271320Z AUTO 34006KT FEW011 SCT014 BKN027 08/06 A3011 RMK AO1 PRESRR SLP201
SPECI CYNL 271319Z AUTO 34007KT SCT013 BKN023 OVC033 08/06 A3011 RMK AO1 PRESRR SLP201
SPECI CYNL 271318Z AUTO 34006KT SCT013 BKN026 BKN033 08/06 A3011 RMK AO1 PRESRR SLP201
SPECI CYNL 271317Z AUTO 33006KT SCT013 BKN023 BKN033 08/06 A3011 RMK AO1 PRESRR SLP201
SPECI CYNL 271308Z AUTO 34008KT FEW011 SCT014 OVC032 08/06 A3010 RMK AO1 PRESRR SLP200
SPECI CYNL 271301Z AUTO 33008KT FEW011 SCT015 BKN026 08/06 A3010 RMK AO1 PRESRR SLP199
METAR CYNL 271300Z AUTO 33008KT FEW011 SCT015 OVC033 08/06 A3010 RMK AO1 PRESRR SLP199
SPECI CYNL 271229Z AUTO 33006KT BKN030 07/06 A3009 RMK AO1 SLP197
SPECI CYNL 271214Z AUTO 35008G17KT BKN026 07/06 A3009 RMK AO1 SLP195
METAR CYNL 271200Z AUTO 35010KT SCT023 BKN060 07/06 A3008 RMK AO1 SLP193
SPECI CYNL 271138Z AUTO 34010G16KT FEW013 SCT026 BKN060 07/06 A3008 RMK AO1 SLP192
SPECI CYNL 271128Z AUTO 34011G16KT SCT013 OVC025 07/06 A3007 RMK AO1 SLP191
METAR CYNL 271100Z AUTO 33008G15KT FEW011 OVC022 07/07 A3006 RMK AO1 SLP188
SPECI CYNL 271014Z AUTO 35007KT FEW006 SCT009 OVC022 07/07 A3005 RMK AO1 SLP178
SPECI CYNL 271008Z AUTO 00009KT SCT006 BKN010 OVC022 07/07 A3005 RMK AO1 SLP177
SPECI CYNL 271006Z AUTO 00007KT FEW005 BKN009 BKN015 07/07 A3005 RMK AO1 SLP177
SPECI CYNL 271005Z AUTO 00007KT SCT006 BKN010 BKN015 07/07 A3005 RMK AO1 SLP177
SPECI CYNL 271004Z AUTO 00007KT FEW005 BKN009 OVC020 07/07 A3005 RMK AO1 SLP177
METAR CYNL 271000Z AUTO 35005KT FEW008 SCT010 BKN013 07/07 A3005 RMK AO1 SLP177
SPECI CYNL 270958Z AUTO 34006KT SCT009 BKN014 BKN019 07/07 A3005 RMK AO1 SLP179
SPECI CYNL 270956Z AUTO 34005KT SCT009 BKN015 BKN019 07/07 A3005 RMK AO1 PRESRR SLP179
SPECI CYNL 270955Z AUTO 33005KT SCT009 BKN012 OVC020 07/07 A3005 RMK AO1 PRESRR SLP179
SPECI CYNL 270949Z AUTO 34005KT FEW009 SCT013 OVC020 07/07 A3005 RMK AO1 PRESRR SLP178
SPECI CYNL 270928Z AUTO 35007KT BKN020 07/06 A3004 RMK AO1 PRESRR SLP176
SPECI CYNL 270925Z AUTO 35007KT SCT020 BKN026 07/07 A3004 RMK AO1 PRESRR SLP176
SPECI CYNL 270918Z AUTO 00007KT FEW006 SCT020 07/06 A3004 RMK AO1 PRESRR SLP175
SPECI CYNL 270912Z AUTO 00008KT FEW007 SCT020 BKN026 07/07 A3004 RMK AO1 PRESRR SLP175
METAR CYNL 270900Z AUTO 01010G21KT FEW006 SCT015 BKN020 08/07 A3003 RMK AO1 PRESRR SLP173
SPECI CYNL 270856Z AUTO 01012G21KT FEW007 SCT012 BKN015 08/07 A3003 RMK AO1 SLP175
SPECI CYNL 270854Z AUTO 00010G21KT FEW006 SCT010 BKN014 08/08 A3003 RMK AO1 SLP174
SPECI CYNL 270846Z AUTO 35007KT SCT009 OVC022 08/08 A3003 RMK AO1 SLP171
SPECI CYNL 270844Z AUTO 01009KT SCT009 BKN014 OVC021 08/08 A3002 RMK AO1 SLP171
SPECI CYNL 270841Z AUTO 35009KT SCT008 BKN015 OVC020 08/08 A3002 RMK AO1 SLP171
SPECI CYNL 270830Z AUTO 34008G17KT FEW008 SCT011 BKN014 08/08 A3002 RMK AO1 SLP170
SPECI CYNL 270827Z AUTO 35010G16KT SCT008 BKN015 OVC021 09/08 A3002 RMK AO1 SLP169
SPECI CYNL 270824Z AUTO 34010KT SCT008 BKN011 BKN015 09/08 A3002 RMK AO1 SLP169
SPECI CYNL 270823Z AUTO 34010KT SCT008 BKN015 OVC021 09/08 A3002 RMK AO1 SLP169
SPECI CYNL 270818Z AUTO 35006KT FEW009 SCT011 BKN014 09/09 A3002 RMK AO1 SLP168
SPECI CYNL 270817Z AUTO 00008KT SCT010 BKN014 OVC019 09/08 A3002 RMK AO1 SLP168
SPECI CYNL 270813Z AUTO 00009G15KT FEW010 BKN015 BKN021 09/08 A3001 RMK AO1 SLP167
METAR CYNL 270800Z AUTO 34007KT FEW008 BKN013 BKN029 09/09 A3001 RMK AO1 SLP166
SPECI CYNL 270753Z AUTO 33007KT SCT008 BKN013 BKN048 09/09 A3001 RMK AO1 SLP167
SPECI CYNL 270745Z AUTO 35008KT BKN009 BKN045 09/09 A3000 RMK AO1 SLP164
SPECI CYNL 270734Z AUTO 34007KT SCT007 BKN011 BKN033 09/09 A3000 RMK AO1 SLP163
SPECI CYNL 270731Z AUTO 34009KT BKN008 BKN034 OVC046 09/09 A3000 RMK AO1 SLP164
SPECI CYNL 270729Z AUTO 34009KT SCT008 BKN014 BKN034 09/09 A3000 RMK AO1 SLP164
SPECI CYNL 270727Z AUTO 34007KT SCT008 BKN022 BKN046 09/09 A3000 RMK AO1 SLP164
SPECI CYNL 270725Z AUTO 34006KT VV021 09/09 A3000 RMK AO1 SLP164
SPECI CYNL 270724Z AUTO 34006KT VV026 09/09 A3000 RMK AO1 SLP164
SPECI CYNL 270719Z AUTO 34007KT VV030 09/09 A3000 RMK AO1 SLP163
SPECI CYNL 270718Z AUTO 34007KT VV027 09/09 A3000 RMK AO1 SLP163
SPECI CYNL 270716Z AUTO 34006KT SCT007 BKN034 BKN047 09/09 A3000 RMK AO1 SLP163
SPECI CYNL 270713Z AUTO 34006KT FEW007 SCT017 BKN027 09/09 A3000 RMK AO1 SLP163
SPECI CYNL 270707Z AUTO 33005KT FEW008 SCT027 BKN035 09/09 A3000 RMK AO1 SLP163
METAR CYNL 270700Z AUTO 33005KT FEW020 BKN033 09/09 A3000 RMK AO1 SLP163
SPECI CYNL 270657Z AUTO 34005KT FEW019 BKN032 BKN046 09/09 A3000 RMK AO1 SLP161
SPECI CYNL 270654Z AUTO 34005KT VV028 09/09 A3000 RMK AO1 SLP161
SPECI CYNL 270634Z AUTO 30008KT VV030 09/09 A3000 RMK AO1 SLP161
SPECI CYNL 270629Z AUTO 31007KT FEW003 SCT015 BKN025 10/10 A3000 RMK AO1 SLP161
SPECI CYNL 270628Z AUTO 31009KT FEW003 SCT015 BKN020 10/10 A3000 RMK AO1 SLP161
SPECI CYNL 270627Z AUTO 30009KT FEW003 SCT014 BKN025 10/10 A3000 RMK AO1 SLP161
SPECI CYNL 270625Z AUTO 31007KT FEW003 SCT014 BKN020 10/10 A3000 RMK AO1 SLP161
SPECI CYNL 270620Z AUTO 31006KT FEW003 SCT021 OVC028 10/09 A3000 RMK AO1 SLP160
SPECI CYNL 270618Z AUTO 31007KT VV029 10/09 A3000 RMK AO1 SLP160
SPECI CYNL 270617Z AUTO 31008KT FEW003 BKN021 BKN025 10/09 A3000 RMK AO1 SLP160
METAR CYNL 270600Z AUTO 30006KT BKN021 10/09 A2999 RMK AO1 SLP159
SPECI CYNL 270549Z AUTO 31007KT FEW009 BKN021 11/09 A2999 RMK AO1 SLP155
SPECI CYNL 270530Z AUTO 32007KT FEW008 BKN054 11/09 A2999 RMK AO1 SLP152
METAR CYNL 270500Z AUTO 33007KT FEW037 BKN046 11/07 A2998 RMK AO1 SLP151
METAR CYNL 270400Z AUTO 28005KT FEW030 SCT041 BKN060 13/09 A2997 RMK AO1 SLP144
METAR CYNL 270300Z AUTO 26004KT FEW150 13/09 A2997 RMK AO1 SLP143
METAR CYNL 270200Z AUTO 30003KT FEW072 14/09 A2997 RMK AO1 SLP142
METAR CYNL 270100Z AUTO 32005KT FEW056 14/09 A2998 RMK AO1 SLP146
METAR CYNL 270000Z AUTO 33005KT FEW008 BKN048 13/09 A2997 RMK AO1 SLP145
SPECI CYNL 262357Z AUTO 33005KT FEW006 OVC048 13/09 A2997 RMK AO1 SLP148
SPECI CYNL 262311Z AUTO 33017G27KT SCT037 17/07 A2996 RMK AO1 WSHFT (23)11 SLP141
METAR CYNL 262300Z AUTO 28013G19KT FEW037 19/09 A2995 RMK AO1 SLP136
METAR CYNL 262200Z AUTO 29011G17KT FEW200 17/10 A2997 RMK AO1 SLP145
METAR CYNL 262100Z AUTO 27010G16KT FEW210 15/11 A2997 RMK AO1 SLP149
METAR CYNL 262000Z AUTO 27006KT FEW010 SCT032 BKN047 14/11 A2999 RMK AO1 SLP155
SPECI CYNL 261948Z AUTO 28008KT FEW009 SCT030 BKN045 13/11 A2999 RMK AO1 SLP156
SPECI CYNL 261937Z AUTO 27008G17KT FEW010 SCT020 BKN030 13/11 A3000 RMK AO1 SLP157
SPECI CYNL 261934Z AUTO 28009G17KT VV024 13/11 A3000 RMK AO1 SLP157
SPECI CYNL 261931Z AUTO 28010G17KT VV027 13/11 A3000 RMK AO1 SLP157
SPECI CYNL 261917Z AUTO 27008G17KT FEW012 SCT021 BKN041 14/12 A3000 RMK AO1 SLP157
SPECI CYNL 261916Z AUTO 27009G17KT VV023 14/12 A2999 RMK AO1 SLP157
SPECI CYNL 261908Z AUTO 28009G17KT FEW016 SCT033 OVC047 14/12 A2999 RMK AO1 SLP156
SPECI CYNL 261904Z AUTO 28009G20KT VV026 14/12 A2999 RMK AO1 SLP156
METAR CYNL 261900Z AUTO 28009G20KT FEW022 SCT032 BKN040 14/12 A2999 RMK AO1 SLP155
SPECI CYNL 261844Z AUTO 29008KT VV032 14/12 A2999 RMK AO1 SLP152
SPECI CYNL 261843Z AUTO 29007KT VV027 14/12 A2999 RMK AO1 SLP152
SPECI CYNL 261841Z AUTO 29008KT VV023 14/12 A2999 RMK AO1 SLP152
SPECI CYNL 261833Z AUTO 28009G17KT FEW007 BKN036 OVC048 15/11 A2998 RMK AO1 SLP151
METAR CYNL 261800Z AUTO 26007KT BKN036 BKN130 17/11 A2998 RMK AO1 SLP147
METAR CYNL 261700Z AUTO 29009KT FEW039 19/09 A2997 RMK AO1 SLP143
METAR CYNL 261600Z AUTO 29008KT SCT031 19/10 A2998 RMK AO1 SLP142
METAR CYNL 261500Z AUTO 29010G17KT FEW026 18/10 A2998 RMK AO1 SLP145
METAR CYNL 261400Z AUTO 28007KT CLR 18/10 A2999 RMK AO1 SLP144
METAR CYNL 261300Z AUTO 28011KT CLR 16/09 A3000 RMK AO1 SLP148
METAR CYNL 261200Z AUTO 24004KT FEW090 14/09 A3000 RMK AO1 SLP151
METAR CYNL 261100Z AUTO 24004KT BKN084 13/09 A3001 RMK AO1 SLP156
METAR CYNL 261000Z AUTO 24004KT CLR 12/09 A3002 RMK AO1 SLP159
METAR CYNL 260900Z AUTO 24002KT BKN074 13/08 A3004 RMK AO1 SLP164
METAR CYNL 260800Z AUTO 25003KT SCT064 14/08 A3005 RMK AO1 SLP167
METAR CYNL 260700Z AUTO 25004KT BKN064 BKN084 14/08 A3006 RMK AO1 SLP172
METAR CYNL 260600Z AUTO 26004KT FEW100 15/06 A3007 RMK AO1 SLP174
METAR CYNL 260500Z AUTO 00000KT BKN070 OVC088 17/06 A3006 RMK AO1 SLP172
METAR CYNL 260400Z AUTO 22003KT BKN070 OVC096 18/02 A3007 RMK AO1 SLP174
METAR CYNL 260300Z AUTO 00000KT BKN086 19/02 A3007 RMK AO1 SLP172
METAR CYNL 260200Z AUTO 35003KT CLR 20/01 A3006 RMK AO1 SLP169
METAR CYNL 260100Z AUTO 35006KT FEW088 21/M00 A3007 RMK AO1 SLP174
METAR CYNL 260000Z AUTO 34004KT CLR 21/M00 A3008 RMK AO1 SLP177
METAR CYNL 252300Z AUTO 30009G15KT 270V340 CLR 22/M01 A3008 RMK AO1 SLP180
METAR CYNL 252200Z AUTO 00007G15KT CLR 21/M02 A3010 RMK AO1 SLP187
METAR CYNL 252100Z AUTO 00007KT 290V070 FEW084 21/M01 A3010 RMK AO1 SLP188
METAR CYNL 252000Z AUTO 02005KT FEW078 20/M00 A3011 RMK AO1 SLP193
METAR CYNL 251900Z AUTO 07011G17KT 040V100 FEW074 19/M00 A3012 RMK AO1 SLP196
METAR CYNL 251800Z AUTO 01012KT FEW066 18/00 A3013 RMK AO1 SLP198
METAR CYNL 251700Z AUTO 33009G18KT CLR 18/01 A3013 RMK AO1 SLP199
METAR CYNL 251600Z AUTO 00007KT CLR 17/04 A3015 RMK AO1 SLP203
METAR CYNL 251500Z AUTO 35006KT CLR 16/04 A3015 RMK AO1 SLP204
METAR CYNL 251400Z AUTO 02007KT CLR 15/04 A3015 RMK AO1 SLP203
METAR CYNL 251300Z AUTO 02004KT CLR 15/05 A3014 RMK AO1 SLP199
METAR CYNL 251200Z AUTO 35004KT CLR 13/06 A3013 RMK AO1 SLP200
METAR CYNL 251100Z AUTO 01004KT FEW070 10/05 A3013 RMK AO1 SLP199
METAR CYNL 251000Z AUTO 00003KT CLR 10/05 A3012 RMK AO1 SLP195
METAR CYNL 250900Z AUTO 01004KT CLR 11/05 A3012 RMK AO1 SLP195
METAR CYNL 250800Z AUTO 01004KT CLR 12/05 A3011 RMK AO1 SLP192
METAR CYNL 250700Z AUTO 02006KT OVC110 13/05 A3011 RMK AO1 SLP189
METAR CYNL 250600Z AUTO 01006KT BKN078 OVC110 14/05 A3011 RMK AO1 SLP190
METAR CYNL 250500Z AUTO 00006KT SCT092 BKN130 15/05 A3011 RMK AO1 SLP187
METAR CYNL 250400Z AUTO 02004KT SCT094 16/04 A3010 RMK AO1 SLP184
METAR CYNL 250300Z AUTO 33009G16KT BKN072 17/04 A3009 RMK AO1 SLP181
METAR CYNL 250200Z AUTO 02004KT FEW082 SCT110 18/04 A3008 RMK AO1 SLP177
METAR CYNL 250100Z AUTO 13004KT SCT082 BKN100 18/03 A3007 RMK AO1 SLP175
METAR CYNL 250000Z AUTO 02004KT SCT090 20/M01 A3006 RMK AO1 SLP173
METAR CYNL 242300Z AUTO 00007KT FEW100 SCT210 21/M01 A3007 RMK AO1 SLP177
METAR CYNL 242200Z AUTO 02004G16KT FEW096 21/M02 A3007 RMK AO1 SLP180
METAR CYNL 242100Z AUTO 01010KT 330V050 CLR 21/M02 A3007 RMK AO1 SLP182
METAR CYNL 242000Z AUTO 06007G16KT CLR 20/M03 A3008 RMK AO1 SLP186
METAR CYNL 241900Z AUTO 03009G16KT CLR 20/M02 A3010 RMK AO1 SLP190
METAR CYNL 241800Z AUTO 08009KT 050V120 CLR 19/M02 A3010 RMK AO1 SLP191
METAR CYNL 241700Z AUTO 04010KT CLR 18/M03 A3011 RMK AO1 SLP195
METAR CYNL 241600Z AUTO 03010KT 000V060 CLR 18/M02 A3011 RMK AO1 SLP194
METAR CYNL 241500Z AUTO 08004KT CLR 17/M01 A3012 RMK AO1 SLP196
METAR CYNL 241400Z AUTO 00000KT CLR 17/M01 A3012 RMK AO1 SLP194
METAR CYNL 241300Z AUTO 00000KT CLR 14/02 A3012 RMK AO1 SLP194
METAR CYNL 241200Z AUTO 02003KT CLR 11/03 A3012 RMK AO1 SLP197
METAR CYNL 241100Z AUTO 02004KT CLR 08/02 A3011 RMK AO1 PRESRR SLP197
METAR CYNL 241000Z AUTO 03003KT CLR 07/02 A3009 RMK AO1 SLP192
METAR CYNL 240900Z AUTO 03004KT CLR 07/00 A3009 RMK AO1 SLP193
METAR CYNL 240800Z AUTO 02004KT CLR 08/01 A3009 RMK AO1 SLP190
METAR CYNL 240700Z AUTO 03004KT CLR 10/00 A3008 RMK AO1 SLP188
METAR CYNL 240600Z AUTO 04006KT CLR 11/01 A3008 RMK AO1 SLP186
METAR CYNL 240500Z AUTO 03004KT CLR 12/02 A3007 RMK AO1 SLP183
METAR CYNL 240400Z AUTO 00005KT CLR 14/01 A3006 RMK AO1 SLP179
METAR CYNL 240300Z AUTO 02005KT CLR 17/01 A3006 RMK AO1 SLP174
METAR CYNL 240200Z AUTO 02007KT CLR 18/M01 A3005 RMK AO1 SLP172
METAR CYNL 240100Z AUTO 02009KT CLR 18/M01 A3005 RMK AO1 SLP172
METAR CYNL 240000Z AUTO 00006KT FEW070 18/M01 A3004 RMK AO1 SLP172
METAR CYNL 232300Z AUTO 03004KT FEW066 17/00 A3004 RMK AO1 SLP175
METAR CYNL 232200Z AUTO 06006KT 030V090 BKN068 17/01 A3004 RMK AO1 SLP175
METAR CYNL 232100Z AUTO 05010G15KT SCT072 17/00 A3003 RMK AO1 SLP172
METAR CYNL 232000Z AUTO 08008G20KT FEW072 SCT180 16/00 A3003 RMK AO1 SLP171
METAR CYNL 231900Z AUTO 02012KT SCT064 16/01 A3002 RMK AO1 WSHFT (18)54 SLP169
SPECI CYNL 231854Z AUTO 04011G18KT 010V070 SCT066 16/01 A3002 RMK AO1 WSHFT (18)54 SLP169
METAR CYNL 231800Z AUTO 06008KT FEW050 15/02 A3002 RMK AO1 WSHFT (17)54 SLP169
SPECI CYNL 231754Z AUTO 07011G20KT FEW049 SCT170 15/02 A3002 RMK AO1 WSHFT (17)54 SLP168
SPECI CYNL 231741Z AUTO 06010G20KT FEW048 15/02 A3002 RMK AO1 WSHFT (17)41 SLP168
SPECI CYNL 231724Z AUTO 05010G18KT FEW046 SCT058 14/02 A3002 RMK AO1 WSHFT (17)24 SLP169
METAR CYNL 231700Z AUTO 02012G17KT SCT045 15/02 A3002 RMK AO1 SLP168
SPECI CYNL 231634Z AUTO 05012KT 020V080 SCT044 14/02 A3002 RMK AO1 WSHFT (16)34 SLP168
SPECI CYNL 231627Z AUTO 08012KT FEW041 14/02 A3002 RMK AO1 WSHFT (16)27 SLP168
METAR CYNL 231600Z AUTO 06011G17KT FEW040 14/03 A3002 RMK AO1 WSHFT (15)57 SLP168
SPECI CYNL 231557Z AUTO 06011G17KT FEW039 14/03 A3002 RMK AO1 WSHFT (15)57 SLP168
METAR CYNL 231500Z AUTO 04010G15KT CLR 11/03 A3002 RMK AO1 SLP170
METAR CYNL 231400Z AUTO 07010KT SCT046 11/04 A3001 RMK AO1 SLP168
METAR CYNL 231300Z AUTO 04007KT FEW014 10/04 A3001 RMK AO1 SLP167
SPECI CYNL 231240Z AUTO 05008KT SCT014 09/04 A3001 RMK AO1 SLP166
SPECI CYNL 231237Z AUTO 04008KT BKN014 09/05 A3001 RMK AO1 SLP166
METAR CYNL 231200Z AUTO 04006KT CLR 09/05 A3000 RMK AO1 SLP164
METAR CYNL 231100Z AUTO 05006KT FEW016 SCT046 08/05 A2999 RMK AO1 SLP160
METAR CYNL 231000Z AUTO 06004KT BKN044 07/04 A2998 RMK AO1 SLP155
SPECI CYNL 230919Z AUTO 07007KT SCT026 BKN034 08/04 A2997 RMK AO1 SLP151
SPECI CYNL 230903Z AUTO 07008KT FEW017 OVC025 08/04 A2997 RMK AO1 SLP150
METAR CYNL 230900Z AUTO 06010G15KT FEW017 OVC024 08/04 A2997 RMK AO1 SLP150
SPECI CYNL 230831Z AUTO 06007KT BKN018 OVC039 08/04 A2996 RMK AO1 SLP148
METAR CYNL 230800Z AUTO 06006KT FEW017 BKN038 08/04 A2996 RMK AO1 SLP146
METAR CYNL 230700Z AUTO 04007KT CLR 08/03 A2994 RMK AO1 SLP140
METAR CYNL 230600Z AUTO 03010KT OVC041 10/03 A2993 RMK AO1 SLP136
METAR CYNL 230500Z AUTO 04008KT OVC037 11/04 A2992 RMK AO1 SLP133
METAR CYNL 230400Z AUTO 06006KT OVC041 11/03 A2991 RMK AO1 SLP127
METAR CYNL 230300Z AUTO 03009KT CLR 11/03 A2990 RMK AO1 SLP125
METAR CYNL 230200Z AUTO 02011G17KT CLR 13/04 A2989 RMK AO1 SLP122
METAR CYNL 230100Z AUTO 04013G18KT CLR 14/04 A2988 RMK AO1 SLP120
METAR CYNL 230000Z AUTO 03010KT CLR 15/04 A2988 RMK AO1 SLP120
METAR CYNL 222300Z AUTO 03011G18KT CLR 15/03 A2987 RMK AO1 SLP119
METAR CYNL 222200Z AUTO 05011G17KT CLR 16/03 A2986 RMK AO1 SLP115
METAR CYNL 222100Z AUTO 05013KT CLR 16/04 A2985 RMK AO1 SLP112
METAR CYNL 222000Z AUTO 05008KT CLR 16/04 A2985 RMK AO1 SLP111
METAR CYNL 221900Z AUTO 00007KT 320V030 CLR 16/04 A2986 RMK AO1 SLP112
METAR CYNL 221800Z AUTO 07009G19KT CLR 15/05 A2985 RMK AO1 SLP113
METAR CYNL 221700Z AUTO 03007KT CLR 15/05 A2987 RMK AO1 SLP115
METAR CYNL 221600Z AUTO 04006KT CLR 14/05 A2987 RMK AO1 SLP114
METAR CYNL 221500Z AUTO 00004KT CLR 13/04 A2988 RMK AO1 SLP118
METAR CYNL 221400Z AUTO 07006KT CLR 11/04 A2989 RMK AO1 SLP120
METAR CYNL 221300Z AUTO 06008KT CLR 10/04 A2989 RMK AO1 SLP119
METAR CYNL 221200Z AUTO 07006KT CLR 08/04 A2991 RMK AO1 SLP124
METAR CYNL 221100Z AUTO 08005KT CLR 07/05 A2990 RMK AO1 SLP124
METAR CYNL 221000Z AUTO 05004KT CLR 07/05 A2991 RMK AO1 SLP127
METAR CYNL 220900Z AUTO 07004KT CLR 08/05 A2991 RMK AO1 SLP126
METAR CYNL 220800Z AUTO 06005KT CLR 08/04 A2990 RMK AO1 SLP121
METAR CYNL 220700Z AUTO 04003KT SCT120 10/05 A2991 RMK AO1 SLP123
METAR CYNL 220600Z AUTO 03004KT CLR 10/05 A2991 RMK AO1 SLP124
METAR CYNL 220500Z AUTO 00000KT FEW120 13/06 A2992 RMK AO1 SLP123
METAR CYNL 220400Z AUTO 06006KT SCT130 15/03 A2992 RMK AO1 SLP123
METAR CYNL 220300Z AUTO 10003KT CLR 17/06 A2992 RMK AO1 SLP122
METAR CYNL 220200Z AUTO 00003KT FEW130 20/05 A2992 RMK AO1 SLP120
METAR CYNL 220100Z AUTO 02005KT FEW066 21/05 A2993 RMK AO1 SLP125
METAR CYNL 220000Z AUTO 32008G16KT CLR 21/05 A2992 RMK AO1 SLP127
METAR CYNL 212300Z AUTO 34010G16KT FEW072 20/04 A2993 RMK AO1 SLP133
METAR CYNL 212200Z AUTO 31010G22KT CLR 21/05 A2993 RMK AO1 SLP134
METAR CYNL 212100Z AUTO 34011G24KT FEW060 21/05 A2993 RMK AO1 SLP136
SPECI CYNL 212043Z AUTO 35013G20KT FEW060 22/06 A2993 RMK AO1 WSHFT (20)43 SLP134
SPECI CYNL 212032Z AUTO 31014G23KT CLR 22/05 A2993 RMK AO1 WSHFT (20)32 SLP134
METAR CYNL 212000Z AUTO 34013G23KT FEW066 21/05 A2993 RMK AO1 SLP136
METAR CYNL 211900Z AUTO 33013G21KT FEW062 22/05 A2993 RMK AO1 SLP134
METAR CYNL 211800Z AUTO 31015G21KT CLR 21/05 A2994 RMK AO1 SLP134
METAR CYNL 211700Z AUTO 31013G22KT CLR 20/05 A2995 RMK AO1 SLP139
METAR CYNL 211600Z AUTO 29014G22KT CLR 19/05 A2996 RMK AO1 PRESFR SLP142
METAR CYNL 211500Z AUTO 28010G23KT SCT088 17/04 A2998 RMK AO1 SLP149
METAR CYNL 211400Z AUTO 26006KT FEW068 15/06 A2999 RMK AO1 SLP152
METAR CYNL 211300Z AUTO 24004KT SCT068 12/06 A3000 RMK AO1 SLP157
METAR CYNL 211200Z AUTO 24003KT FEW070 09/07 A3001 RMK AO1 SLP159
METAR CYNL 211100Z AUTO 22003KT CLR 07/06 A3001 RMK AO1 SLP163
METAR CYNL 211000Z AUTO 26005KT CLR 06/06 A3001 RMK AO1 SLP163
METAR CYNL 210900Z AUTO 31002KT CLR 06/06 A3000 RMK AO1 SLP162
METAR CYNL 210800Z AUTO 00000KT CLR 07/06 A3001 RMK AO1 SLP163
METAR CYNL 210700Z AUTO 33003KT CLR 08/05 A3001 RMK AO1 SLP162
METAR CYNL 210600Z AUTO 00004KT CLR 09/04 A3001 RMK AO1 SLP162
METAR CYNL 210500Z AUTO 01004KT CLR 11/04 A3001 RMK AO1 SLP160
METAR CYNL 210400Z AUTO 03003KT CLR 13/05 A3000 RMK AO1 SLP156
METAR CYNL 210300Z AUTO 03005KT CLR 16/02 A2998 RMK AO1 SLP149
METAR CYNL 210200Z AUTO 02008KT FEW062 18/02 A2998 RMK AO1 SLP148
METAR CYNL 210100Z AUTO 34012G20KT 310V020 FEW064 19/03 A2997 RMK AO1 SLP145
METAR CYNL 210000Z AUTO 35011KT SCT068 19/02 A2996 RMK AO1 SLP142
METAR CYNL 202300Z AUTO 34010G17KT CLR 19/M00 A2996 RMK AO1 SLP141
METAR CYNL 202200Z AUTO 32009G16KT CLR 19/02 A2995 RMK AO1 SLP139
METAR CYNL 202100Z AUTO 00008G16KT FEW060 18/02 A2995 RMK AO1 SLP139
METAR CYNL 202000Z AUTO 01009G16KT CLR 18/04 A2995 RMK AO1 SLP137
SPECI CYNL 201923Z AUTO 34012G17KT CLR 18/02 A2995 RMK AO1 WSHFT (19)23 SLP138
METAR CYNL 201900Z AUTO 04011G17KT CLR 17/04 A2995 RMK AO1 SLP138
METAR CYNL 201800Z AUTO 35007KT CLR 16/06 A2994 RMK AO1 SLP137
METAR CYNL 201700Z AUTO 05006KT FEW028 14/06 A2994 RMK AO1 SLP138
SPECI CYNL 201650Z AUTO 01005KT SCT028 15/06 A2995 RMK AO1 SLP139
SPECI CYNL 201628Z AUTO 33004KT BKN028 15/07 A2995 RMK AO1 SLP139
SPECI CYNL 201604Z AUTO 35007KT SCT023 13/06 A2995 RMK AO1 SLP143
METAR CYNL 201600Z AUTO 33004KT BKN023 13/06 A2995 RMK AO1 SLP143
METAR CYNL 201500Z AUTO 00010KT OVC020 12/06 A2995 RMK AO1 SLP142
SPECI CYNL 201405Z AUTO 00006KT BKN015 OVC023 11/07 A2993 RMK AO1 SLP137
SPECI CYNL 201404Z AUTO 01005KT BKN014 BKN017 OVC023 11/07 A2993 RMK AO1 SLP137
METAR CYNL 201400Z AUTO 01008KT BKN015 OVC018 11/07 A2993 RMK AO1 SLP137
SPECI CYNL 201354Z AUTO 00008KT OVC015 11/07 A2993 RMK AO1 SLP135
SPECI CYNL 201347Z AUTO 01007KT OVC014 11/08 A2993 RMK AO1 SLP135
SPECI CYNL 201321Z AUTO 03009KT BKN015 OVC032 11/08 A2993 RMK AO1 SLP133
SPECI CYNL 201320Z AUTO 03008KT BKN014 OVC032 11/08 A2993 RMK AO1 SLP132
SPECI CYNL 201318Z AUTO 02006KT BKN015 OVC032 11/08 A2992 RMK AO1 SLP132
SPECI CYNL 201316Z AUTO 01006KT BKN014 OVC032 11/08 A2992 RMK AO1 SLP132
METAR CYNL 201300Z AUTO 00008KT FEW010 OVC032 11/08 A2992 RMK AO1 SLP132
SPECI CYNL 201242Z AUTO 02006KT SCT010 OVC032 10/08 A2992 RMK AO1 SLP131
SPECI CYNL 201223Z AUTO 01009KT SCT009 BKN011 OVC032 10/08 A2992 RMK AO1 SLP129
SPECI CYNL 201221Z AUTO 01006KT BKN009 OVC032 10/08 A2991 RMK AO1 SLP129
SPECI CYNL 201220Z AUTO 00007KT BKN010 OVC032 10/08 A2991 RMK AO1 SLP129
METAR CYNL 201200Z AUTO 01007KT OVC009 10/09 A2991 RMK AO1 SLP128
METAR CYNL 201100Z AUTO 02006KT SCT006 BKN008 BKN011 10/10 A2989 RMK AO1 PRESRR SLP121
METAR CYNL 201000Z AUTO 01005KT BKN008 OVC010 11/11 A2987 RMK AO1 SLP113
SPECI CYNL 200949Z AUTO 01006KT FEW006 BKN008 OVC027 11/11 A2987 RMK AO1 SLP112
SPECI CYNL 200942Z AUTO 01006KT SCT008 BKN010 OVC027 11/11 A2987 RMK AO1 SLP112
SPECI CYNL 200940Z AUTO 01005KT BKN009 OVC027 11/11 A2987 RMK AO1 SLP112
SPECI CYNL 200936Z AUTO 01007KT SCT009 BKN019 OVC027 11/11 A2987 RMK AO1 SLP111
SPECI CYNL 200935Z AUTO 03006KT SCT009 OVC027 11/10 A2987 RMK AO1 SLP111
METAR CYNL 200900Z AUTO 35006KT OVC028 12/10 A2985 RMK AO1 SLP107
SPECI CYNL 200859Z AUTO 35006KT OVC028 12/10 A2985 RMK AO1 SLP107
SPECI CYNL 200855Z AUTO 01006KT SCT026 OVC031 12/10 A2986 RMK AO1 SLP107
METAR CYNL 200800Z AUTO 34006KT OVC027 12/10 A2986 RMK AO1 SLP109
SPECI CYNL 200733Z AUTO 33003KT SCT018 OVC025 12/10 A2986 RMK AO1 SLP108
METAR CYNL 200700Z AUTO 33005KT BKN016 BKN020 OVC024 13/10 A2985 RMK AO1 SLP105
METAR CYNL 200600Z AUTO 00004KT OVC023 13/11 A2984 RMK AO1 SLP100
METAR CYNL 200500Z AUTO 32003KT OVC021 13/11 A2984 RMK AO1 SLP101
SPECI CYNL 200425Z AUTO 35004KT BKN022 13/11 A2983 RMK AO1 SLP101
SPECI CYNL 200419Z AUTO 35004KT SCT021 13/11 A2983 RMK AO1 SLP098
SPECI CYNL 200417Z AUTO 35004KT BKN021 13/11 A2983 RMK AO1 SLP098
METAR CYNL 200400Z AUTO 32003KT FEW022 13/11 A2983 RMK AO1 SLP098
SPECI CYNL 200318Z AUTO 00005KT SCT024 15/11 A2983 RMK AO1 SLP096
METAR CYNL 200300Z AUTO 34004KT OVC024 15/11 A2983 RMK AO1 SLP096
SPECI CYNL 200258Z AUTO 35005KT OVC024 15/11 A2983 RMK AO1 SLP097
SPECI CYNL 200230Z AUTO 34006KT BKN026 16/11 A2981 RMK AO1 SLP091
SPECI CYNL 200216Z AUTO 35007KT SCT026 BKN074 16/11 A2981 RMK AO1 SLP090
SPECI CYNL 200202Z AUTO 32004KT BKN026 16/11 A2981 RMK AO1 SLP090
METAR CYNL 200200Z AUTO 33003KT SCT026 16/11 A2981 RMK AO1 SLP089
METAR CYNL 200100Z AUTO 30005KT FEW024 17/11 A2980 RMK AO1 SLP087
METAR CYNL 200000Z AUTO 32006KT SCT024 BKN060 17/11 A2980 RMK AO1 SLP088
SPECI CYNL 192315Z AUTO 29007KT SCT026 BKN042 18/12 A2980 RMK AO1 SLP087
METAR CYNL 192300Z AUTO 31005KT OVC026 17/12 A2980 RMK AO1 SLP087
METAR CYNL 192200Z AUTO 29006KT BKN025 OVC031 17/11 A2979 RMK AO1 SLP086
SPECI CYNL 192148Z AUTO 31007KT BKN025 OVC031 17/11 A2979 RMK AO1 SLP084
SPECI CYNL 192117Z AUTO 29007KT BKN024 BKN036 17/11 A2978 RMK AO1 SLP082
METAR CYNL 192100Z AUTO 26005KT FEW023 BKN034 17/11 A2977 RMK AO1 SLP081
SPECI CYNL 192026Z AUTO 31006KT SCT028 BKN033 17/11 A2976 RMK AO1 SLP075
METAR CYNL 192000Z AUTO 34007KT BKN027 17/11 A2975 RMK AO1 SLP075
SPECI CYNL 191952Z AUTO 30008KT SCT023 BKN029 17/11 A2975 RMK AO1 SLP074
METAR CYNL 191900Z AUTO 31005KT BKN021 OVC210 17/11 A2975 RMK AO1 SLP071
METAR CYNL 191800Z AUTO 29006KT OVC020 16/12 A2975 RMK AO1 SLP071
SPECI CYNL 191719Z AUTO 28005KT BKN015 OVC043 16/11 A2973 RMK AO1 SLP067
METAR CYNL 191700Z AUTO 26007KT BKN013 OVC042 15/11 A2972 RMK AO1 SLP065
SPECI CYNL 191651Z AUTO 29008KT BKN013 OVC041 15/12 A2972 RMK AO1 PRESRR SLP065
SPECI CYNL 191650Z AUTO 29009KT SCT013 BKN018 OVC041 15/12 A2972 RMK AO1 PRESRR SLP064
SPECI CYNL 191636Z AUTO 29008KT BKN013 OVC040 14/12 A2973 RMK AO1 PRESRR SLP067
SPECI CYNL 191620Z AUTO 29008KT SCT014 BKN018 OVC041 15/12 A2972 RMK AO1 PRESRR SLP065
SPECI CYNL 191619Z AUTO 29007KT BKN014 BKN018 OVC041 15/12 A2972 RMK AO1 PRESRR SLP065
SPECI CYNL 191604Z AUTO 27007KT SCT012 BKN015 OVC041 15/12 A2972 RMK AO1 PRESRR SLP064
METAR CYNL 191600Z AUTO 27005KT BKN012 OVC042 15/12 A2972 RMK AO1 PRESRR SLP065
SPECI CYNL 191541Z AUTO 27004KT SCT010 BKN013 OVC042 14/12 A2972 RMK AO1 SLP066
SPECI CYNL 191540Z AUTO 27004KT SCT010 BKN016 OVC042 14/12 A2972 RMK AO1 SLP066
SPECI CYNL 191534Z AUTO 26003KT SCT010 OVC042 14/12 A2972 RMK AO1 SLP064
SPECI CYNL 191528Z AUTO 27005KT BKN010 OVC042 14/12 A2971 RMK AO1 SLP062
SPECI CYNL 191519Z AUTO 28005KT BKN009 OVC042 14/13 A2970 RMK AO1 SLP060
METAR CYNL 191500Z AUTO 29006KT FEW008 OVC041 14/13 A2970 RMK AO1 SLP057
SPECI CYNL 191411Z AUTO 27004KT FEW006 SCT027 OVC042 13/13 A2971 RMK AO1 SLP062
SPECI CYNL 191406Z AUTO 25004KT FEW004 BKN027 OVC042 13/13 A2971 RMK AO1 SLP063
METAR CYNL 191400Z AUTO 26004KT FEW004 SCT005 OVC042 13/13 A2971 RMK AO1 SLP062
SPECI CYNL 191351Z AUTO 26004KT SCT004 OVC043 13/13 A2971 RMK AO1 SLP061
SPECI CYNL 191350Z AUTO 26004KT SCT004 BKN028 OVC043 13/13 A2971 RMK AO1 SLP061
METAR CYNL 191300Z AUTO 23005KT OVC004 12/12 A2972 RMK AO1 SLP068
SPECI CYNL 191234Z AUTO 23004KT BKN004 OVC006 12/12 A2972 RMK AO1 SLP067
METAR CYNL 191200Z AUTO 23004KT OVC006 11/11 A2971 RMK AO1 SLP063
SPECI CYNL 191102Z AUTO 00000KT BKN009 OVC011 11/11 A2970 RMK AO1 SLP059
SPECI CYNL 191101Z AUTO 00000KT OVC010 11/11 A2970 RMK AO1 SLP059
METAR CYNL 191100Z AUTO 00000KT BKN009 OVC011 11/11 A2970 RMK AO1 SLP059
METAR CYNL 191000Z AUTO 00000KT OVC014 10/10 A2970 RMK AO1 SLP059
SPECI CYNL 190957Z AUTO 00000KT OVC014 10/10 A2970 RMK AO1 SLP059
METAR CYNL 190900Z AUTO 00000KT BKN018 10/10 A2970 RMK AO1 SLP061
SPECI CYNL 190847Z AUTO 00000KT BKN018 09/09 A2969 RMK AO1 PRESFR SLP059
METAR CYNL 190800Z AUTO 00000KT SCT034 10/10 A2970 RMK AO1 PRESFR SLP060
METAR CYNL 190700Z AUTO 00000KT FEW037 OVC047 11/11 A2972 RMK AO1 SLP066
METAR CYNL 190600Z AUTO 13003KT BKN046 11/11 A2972 RMK AO1 SLP066
METAR CYNL 190500Z AUTO 07002KT OVC035 10/10 A2973 RMK AO1 SLP073
METAR CYNL 190400Z AUTO 09003KT SCT036 BKN058 10/10 A2974 RMK AO1 PRESFR SLP075
SPECI CYNL 190323Z AUTO 12006KT SCT012 BKN032 OVC058 10/10 A2976 RMK AO1 PRESRR SLP081
METAR CYNL 190300Z AUTO 13005KT BKN011 BKN014 11/10 A2977 RMK AO1 PRESRR SLP084
SPECI CYNL 190249Z AUTO 14008KT BKN013 BKN100 11/10 A2977 RMK AO1 SLP084
SPECI CYNL 190203Z AUTO 07010G15KT SCT009 BKN082 11/10 A2971 RMK AO1 SLP064
METAR CYNL 190200Z AUTO 06010KT SCT009 BKN012 BKN082 11/10 A2971 RMK AO1 SLP066
SPECI CYNL 190159Z AUTO 06010KT SCT009 BKN012 BKN082 11/10 A2972 RMK AO1 SLP066
SPECI CYNL 190136Z AUTO 07010G21KT SCT006 BKN008 10/10 A2969 RMK AO1 PRESFR SLP058
METAR CYNL 190100Z AUTO 08014KT FEW009 SCT034 BKN048 11/10 A2973 RMK AO1 PRESFR SLP071
SPECI CYNL 190058Z AUTO 08012KT FEW008 SCT034 BKN048 11/10 A2973 RMK AO1 PRESFR SLP074
SPECI CYNL 190056Z AUTO 08012KT VV029 11/10 A2974 RMK AO1 SLP076
SPECI CYNL 190027Z AUTO 09005KT FEW005 BKN044 11/10 A2980 RMK AO1 SLP095
METAR CYNL 190000Z AUTO 12006KT OVC052 12/09 A2982 RMK AO1 SLP101
METAR CYNL 182300Z AUTO 10007KT FEW041 OVC058 12/09 A2981 RMK AO1 SLP099
METAR CYNL 182200Z AUTO 11010G16KT SCT016 BKN066 12/09 A2982 RMK AO1 SLP101
SPECI CYNL 182142Z AUTO 11010G20KT FEW013 SCT017 BKN068 12/08 A2982 RMK AO1 PRESFR SLP101
SPECI CYNL 182141Z AUTO 10010G20KT BKN015 BKN068 12/08 A2982 RMK AO1 PRESFR SLP102
METAR CYNL 182100Z AUTO 10012KT FEW012 BKN072 12/09 A2982 RMK AO1 PRESFR SLP103
SPECI CYNL 182034Z AUTO 09011KT SCT028 BKN074 11/08 A2982 RMK AO1 PRESFR SLP105
METAR CYNL 182000Z AUTO 10012G17KT OVC029 11/08 A2984 RMK AO1 PRESFR SLP112
SPECI CYNL 181904Z AUTO 11009KT OVC025 11/07 A2988 RMK AO1 SLP121
METAR CYNL 181900Z AUTO 11009KT OVC024 11/07 A2987 RMK AO1 SLP120
SPECI CYNL 181833Z AUTO 11010KT BKN024 10/07 A2987 RMK AO1 SLP122
METAR CYNL 181800Z AUTO 13010G18KT OVC026 10/07 A2988 RMK AO1 SLP124
SPECI CYNL 181753Z AUTO 14012G18KT OVC025 10/06 A2988 RMK AO1 SLP123
METAR CYNL 181700Z AUTO 14009KT OVC022 10/06 A2990 RMK AO1 SLP129
SPECI CYNL 181624Z AUTO 15015G20KT BKN022 11/06 A2991 RMK AO1 SLP131
METAR CYNL 181600Z AUTO 13011KT FEW068 11/05 A2989 RMK AO1 SLP124
METAR CYNL 181500Z AUTO 12011G19KT FEW110 12/03 A2989 RMK AO1 PRESFR SLP123
METAR CYNL 181400Z AUTO 12007KT BKN110 11/02 A2994 RMK AO1 PRESFR SLP139
METAR CYNL 181300Z AUTO 12008KT SCT130 11/02 A2996 RMK AO1 PRESFR SLP147
METAR CYNL 181200Z AUTO 10004KT BKN110 10/03 A2998 RMK AO1 SLP154
METAR CYNL 181100Z AUTO 12006KT FEW110 SCT130 10/03 A2999 RMK AO1 SLP156
METAR CYNL 181000Z AUTO 11006KT BKN098 10/03 A3000 RMK AO1 PRESFR SLP158
METAR CYNL 180900Z AUTO 11005KT OVC088 10/04 A3003 RMK AO1 SLP167
METAR CYNL 180800Z AUTO 15005KT SCT076 11/04 A3004 RMK AO1 PRESFR SLP172
METAR CYNL 180700Z AUTO 13004KT FEW110 BKN130 10/03 A3007 RMK AO1 SLP181
METAR CYNL 180600Z AUTO 12004KT CLR 11/04 A3008 RMK AO1 SLP185
METAR CYNL 180500Z AUTO 14005KT SCT120 12/04 A3009 RMK AO1 SLP188
METAR CYNL 180400Z AUTO 14004KT BKN140 13/03 A3009 RMK AO1 SLP187
METAR CYNL 180300Z AUTO 14007KT CLR 14/03 A3009 RMK AO1 SLP188
METAR CYNL 180200Z AUTO 13007KT CLR 15/04 A3009 RMK AO1 SLP189
METAR CYNL 180100Z AUTO 12010G16KT FEW200 16/04 A3010 RMK AO1 SLP192
METAR CYNL 180000Z AUTO 13010G17KT CLR 17/04 A3011 RMK AO1 SLP197
METAR CYNL 172300Z AUTO 15010G16KT CLR 17/04 A3012 RMK AO1 PRESFR SLP204
METAR CYNL 172200Z AUTO 13010G16KT CLR 17/04 A3015 RMK AO1 PRESFR SLP213
METAR CYNL 172100Z AUTO 17011G17KT FEW050 17/04 A3017 RMK AO1 WSHFT (20)52 SLP222
SPECI CYNL 172052Z AUTO 17012KT FEW050 17/05 A3017 RMK AO1 WSHFT (20)52 SLP222
SPECI CYNL 172047Z AUTO 12012KT CLR 17/04 A3017 RMK AO1 WSHFT (20)47 SLP222
METAR CYNL 172000Z AUTO 15008KT CLR 17/04 A3018 RMK AO1 SLP226
SPECI CYNL 171938Z AUTO 19011G16KT CLR 16/04 A3019 RMK AO1 WSHFT (19)38 SLP228
METAR CYNL 171900Z AUTO 17007G15KT BKN042 16/05 A3020 RMK AO1 SLP231
METAR CYNL 171800Z AUTO 17007G17KT FEW041 15/04 A3020 RMK AO1 SLP230
METAR CYNL 171700Z AUTO 15012KT FEW036 15/04 A3022 RMK AO1 SLP237
METAR CYNL 171600Z AUTO 17007KT SCT032 14/05 A3023 RMK AO1 SLP239
METAR CYNL 171500Z AUTO 18006KT CLR 13/06 A3023 RMK AO1 SLP241
METAR CYNL 171400Z AUTO 19007KT CLR 12/05 A3023 RMK AO1 SLP240
METAR CYNL 171300Z AUTO 19007KT SCT050 09/05 A3025 RMK AO1 SLP247
METAR CYNL 171200Z AUTO 15004KT CLR 08/03 A3024 RMK AO1 SLP245
METAR CYNL 171100Z AUTO 00000KT CLR 06/03 A3023 RMK AO1 SLP243
METAR CYNL 171000Z AUTO 00000KT CLR 05/02 A3022 RMK AO1 SLP239
METAR CYNL 170900Z AUTO 00000KT CLR 05/02 A3021 RMK AO1 SLP237
METAR CYNL 170800Z AUTO 13002KT CLR 07/03 A3021 RMK AO1 SLP235
METAR CYNL 170700Z AUTO 11004KT SCT052 09/03 A3021 RMK AO1 SLP233
METAR CYNL 170600Z AUTO 10005KT OVC052 10/03 A3020 RMK AO1 SLP230
METAR CYNL 170500Z AUTO 10004KT BKN050 10/03 A3019 RMK AO1 SLP226
METAR CYNL 170400Z AUTO 10004KT FEW050 11/02 A3017 RMK AO1 SLP221
METAR CYNL 170300Z AUTO 12003KT CLR 13/03 A3016 RMK AO1 SLP215
METAR CYNL 170200Z AUTO 12005KT OVC047 14/02 A3015 RMK AO1 SLP212
METAR CYNL 170100Z AUTO 10006KT OVC043 14/03 A3014 RMK AO1 SLP209
METAR CYNL 170000Z AUTO 09005KT OVC041 14/04 A3013 RMK AO1 SLP206
METAR CYNL 162300Z AUTO 06007KT OVC042 15/05 A3012 RMK AO1 SLP201
METAR CYNL 162200Z AUTO 04008KT SCT040 16/05 A3011 RMK AO1 WSHFT (21)47 SLP198
SPECI CYNL 162147Z AUTO 01011KT SCT040 BKN210 16/06 A3011 RMK AO1 WSHFT (21)47 SLP196
METAR CYNL 162100Z AUTO 03010KT SCT037 16/06 A3010 RMK AO1 SLP193
METAR CYNL 162000Z AUTO 02008G15KT SCT039 15/05 A3009 RMK AO1 SLP189
METAR CYNL 161900Z AUTO 06009G19KT FEW038 14/04 A3007 RMK AO1 PRESRR SLP185
METAR CYNL 161800Z AUTO 04012KT FEW036 13/04 A3005 RMK AO1 PRESRR SLP180
SPECI CYNL 161719Z AUTO 05010G19KT SCT027 BKN200 13/05 A3003 RMK AO1 PRESRR SLP173
SPECI CYNL 161711Z AUTO 04014KT BKN027 13/05 A3003 RMK AO1 PRESRR SLP171
METAR CYNL 161700Z AUTO 04013G21KT FEW028 13/05 A3002 RMK AO1 PRESRR SLP169
SPECI CYNL 161601Z AUTO 06015G23KT SCT019 12/06 A3000 RMK AO1 SLP162
METAR CYNL 161600Z AUTO 05015G23KT BKN019 12/06 A3000 RMK AO1 SLP162
SPECI CYNL 161538Z AUTO 04015G24KT OVC015 11/06 A3000 RMK AO1 PRESRR SLP162
METAR CYNL 161500Z AUTO 04015KT OVC011 10/07 A2998 RMK AO1 PRESRR SLP158
METAR CYNL 161400Z AUTO 02010G20KT OVC011 10/07 A2995 RMK AO1 PRESRR SLP148
METAR CYNL 161300Z AUTO 03015G23KT OVC012 09/07 A2992 RMK AO1 PRESRR SLP139
METAR CYNL 161200Z AUTO 02010G23KT OVC012 09/07 A2990 RMK AO1 PRESRR SLP130
METAR CYNL 161100Z AUTO 01009G19KT OVC013 09/08 A2987 RMK AO1 PRESRR SLP119
METAR CYNL 161000Z AUTO 02013G22KT OVC014 10/08 A2984 RMK AO1 PRESRR SLP109
SPECI CYNL 160920Z AUTO 01012G25KT BKN014 BKN022 OVC068 11/09 A2983 RMK AO1 SLP101
SPECI CYNL 160918Z AUTO 02014G25KT FEW012 SCT015 BKN022 11/09 A2983 RMK AO1 SLP101
SPECI CYNL 160908Z AUTO 02012G21KT BKN014 OVC029 11/09 A2982 RMK AO1 SLP100
SPECI CYNL 160907Z AUTO 02012G23KT SCT012 BKN015 OVC028 11/09 A2982 RMK AO1 SLP100
METAR CYNL 160900Z AUTO 02013G23KT BKN013 BKN019 OVC028 11/09 A2982 RMK AO1 SLP098
SPECI CYNL 160856Z AUTO 02014G21KT BKN013 BKN028 11/09 A2981 RMK AO1 PRESRR SLP097
SPECI CYNL 160829Z AUTO 00014G24KT SCT012 BKN015 OVC019 11/10 A2981 RMK AO1 PRESRR SLP094
SPECI CYNL 160825Z AUTO 01012G20KT BKN011 BKN016 11/10 A2981 RMK AO1 PRESRR SLP094
SPECI CYNL 160817Z AUTO 02013G19KT SCT012 BKN015 OVC018 11/10 A2981 RMK AO1 PRESRR SLP093
SPECI CYNL 160816Z AUTO 02015KT BKN013 OVC018 11/10 A2981 RMK AO1 PRESRR SLP093
SPECI CYNL 160805Z AUTO 02013G23KT SCT012 OVC017 12/11 A2980 RMK AO1 PRESRR SLP092
SPECI CYNL 160804Z AUTO 02011G23KT BKN013 OVC018 12/11 A2980 RMK AO1 PRESRR SLP091
METAR CYNL 160800Z AUTO 03012G23KT BKN015 OVC020 12/10 A2980 RMK AO1 PRESRR SLP091
SPECI CYNL 160732Z AUTO 02013G21KT FEW012 BKN018 12/10 A2979 RMK AO1 SLP087
SPECI CYNL 160728Z AUTO 02014G21KT FEW012 SCT017 BKN025 12/11 A2979 RMK AO1 SLP086
SPECI CYNL 160726Z AUTO 02015KT FEW013 SCT019 BKN024 12/11 A2979 RMK AO1 SLP086
SPECI CYNL 160704Z AUTO 01010G17KT FEW020 SCT027 BKN042 11/10 A2978 RMK AO1 SLP084
METAR CYNL 160700Z AUTO 02011G17KT FEW020 BKN027 OVC054 11/10 A2978 RMK AO1 SLP084
SPECI CYNL 160635Z AUTO 03011G20KT FEW018 BKN029 BKN066 11/10 A2978 RMK AO1 SLP084
METAR CYNL 160600Z AUTO 02015G21KT SCT035 OVC054 12/10 A2976 RMK AO1 SLP079
SPECI CYNL 160517Z AUTO 03016G23KT FEW011 SCT016 BKN037 12/11 A2976 RMK AO1 PRESRR SLP077
SPECI CYNL 160507Z AUTO 02017G23KT SCT009 BKN015 BKN048 12/11 A2975 RMK AO1 PRESRR SLP075
SPECI CYNL 160506Z AUTO 02014G23KT FEW009 BKN013 BKN048 12/11 A2975 RMK AO1 PRESRR SLP074
SPECI CYNL 160501Z AUTO 02014G21KT BKN010 BKN048 12/12 A2975 RMK AO1 PRESRR SLP073
METAR CYNL 160500Z AUTO 02015G21KT BKN009 OVC048 12/12 A2975 RMK AO1 PRESRR SLP073
SPECI CYNL 160447Z AUTO 01016G24KT BKN009 BKN052 12/12 A2974 RMK AO1 PRESRR SLP070
SPECI CYNL 160433Z AUTO 02015G24KT SCT009 BKN012 12/12 A2974 RMK AO1 PRESRR SLP068
SPECI CYNL 160428Z AUTO 01015G25KT FEW009 SCT012 BKN024 12/12 A2974 RMK AO1 PRESRR SLP069
SPECI CYNL 160423Z AUTO 02014G25KT SCT011 BKN024 12/12 A2973 RMK AO1 PRESRR SLP068
SPECI CYNL 160414Z AUTO 02014G22KT SCT011 BKN047 12/12 A2973 RMK AO1 PRESRR SLP067
SPECI CYNL 160411Z AUTO 03015G22KT SCT012 BKN018 12/12 A2973 RMK AO1 PRESRR SLP067
METAR CYNL 160400Z AUTO 02016G23KT FEW013 SCT018 BKN047 12/12 A2973 RMK AO1 PRESRR SLP065
SPECI CYNL 160358Z AUTO 02014G23KT FEW014 SCT019 BKN047 12/12 A2973 RMK AO1 PRESRR SLP062
SPECI CYNL 160335Z AUTO 03014G22KT FEW012 BKN018 12/12 A2972 RMK AO1 PRESRR SLP059
METAR CYNL 160300Z AUTO 02016G23KT FEW011 SCT058 12/11 A2970 RMK AO1 PRESRR SLP052
SPECI CYNL 160235Z AUTO 03016G25KT SCT011 BKN072 12/11 A2969 RMK AO1 SLP051
SPECI CYNL 160233Z AUTO 03013G26KT SCT011 BKN027 BKN074 12/11 A2969 RMK AO1 SLP051
METAR CYNL 160200Z AUTO 02020G28KT FEW008 SCT031 12/11 A2967 RMK AO1 SLP045
SPECI CYNL 160147Z AUTO 02018G28KT FEW008 SCT014 BKN031 12/12 A2967 RMK AO1 SLP045
SPECI CYNL 160138Z AUTO 01013G19KT SCT009 BKN020 BKN032 12/12 A2967 RMK AO1 SLP044
SPECI CYNL 160125Z AUTO 02014G27KT FEW009 BKN032 BKN041 12/12 A2968 RMK AO1 SLP046
METAR CYNL 160100Z AUTO 02018G29KT FEW014 OVC032 12/12 A2967 RMK AO1 SLP045
SPECI CYNL 160028Z AUTO 03012G20KT SCT012 OVC032 13/12 A2966 RMK AO1 PRESRR SLP041
SPECI CYNL 160025Z AUTO 04013G20KT FEW012 BKN017 OVC032 13/13 A2966 RMK AO1 PRESRR SLP042
METAR CYNL 160000Z AUTO 03014G25KT FEW012 BKN031 BKN045 13/12 A2966 RMK AO1 PRESRR SLP039
SPECI CYNL 152338Z AUTO 04019G28KT FEW013 SCT020 BKN056 13/11 A2964 RMK AO1 PRESRR SLP035
SPECI CYNL 152336Z AUTO 03015G28KT SCT013 BKN028 BKN062 13/12 A2964 RMK AO1 PRESRR SLP034
SPECI CYNL 152328Z AUTO 03019G28KT VV016 14/11 A2964 RMK AO1 PRESRR SLP034
SPECI CYNL 152327Z AUTO 04017G26KT BKN014 BKN022 OVC064 14/12 A2964 RMK AO1 PRESRR SLP034
SPECI CYNL 152325Z AUTO 03019G26KT SCT014 BKN019 OVC025 14/12 A2964 RMK AO1 PRESRR SLP033
SPECI CYNL 152312Z AUTO 03018G27KT BKN014 BKN022 14/12 A2963 RMK AO1 PRESRR SLP031
METAR CYNL 152300Z AUTO 03016G26KT SCT013 BKN020 OVC062 14/12 A2963 RMK AO1 PRESRR SLP030
METAR CYNL 152200Z AUTO 02015G25KT BKN022 14/11 A2960 RMK AO1 SLP020
SPECI CYNL 152131Z AUTO 03016G27KT BKN023 15/11 A2960 RMK AO1 PRESRR SLP017
SPECI CYNL 152130Z AUTO 04018G27KT SCT022 BKN027 15/11 A2959 RMK AO1 PRESRR SLP017
SPECI CYNL 152112Z AUTO 04015G25KT BKN023 15/11 A2959 RMK AO1 PRESRR SLP014
SPECI CYNL 152110Z AUTO 04016G26KT SCT024 BKN029 15/11 A2959 RMK AO1 PRESRR SLP013
SPECI CYNL 152109Z AUTO 04017G26KT BKN024 15/11 A2958 RMK AO1 PRESRR SLP013
SPECI CYNL 152108Z AUTO 03016G26KT BKN025 15/11 A2958 RMK AO1 PRESRR SLP013
METAR CYNL 152100Z AUTO 04017G29KT BKN024 OVC032 15/11 A2959 RMK AO1 PRESRR SLP014
SPECI CYNL 152053Z AUTO 04022G29KT BKN024 OVC031 15/11 A2958 RMK AO1 SLP012
SPECI CYNL 152016Z AUTO 04018G29KT BKN029 16/11 A2956 RMK AO1 SLP004
METAR CYNL 152000Z AUTO 03021G30KT FEW034 16/10 A2955 RMK AO1 SLP002
SPECI CYNL 151933Z AUTO 04018G29KT SCT028 BKN210 15/10 A2955 RMK AO1 SLP999
METAR CYNL 151900Z AUTO 03017G26KT BKN028 OVC037 14/10 A2955 RMK AO1 SLP000
SPECI CYNL 151809Z AUTO 03015G26KT OVC029 15/08 A2954 RMK AO1 SLP996
METAR CYNL 151800Z AUTO 03018G28KT OVC030 14/08 A2954 RMK AO1 SLP995
METAR CYNL 151700Z AUTO 05019G25KT SCT035 OVC049 15/07 A2955 RMK AO1 SLP997
METAR CYNL 151600Z AUTO 04024G35KT BKN056 17/04 A2953 RMK AO1 SLP987
METAR CYNL 151500Z AUTO 04015G30KT BKN068 17/03 A2953 RMK AO1 SLP988
METAR CYNL 151400Z AUTO 03020G27KT CLR 17/05 A2954 RMK AO1 PRESFR SLP992
METAR CYNL 151300Z AUTO 03015G23KT CLR 16/05 A2957 RMK AO1 SLP999
METAR CYNL 151200Z AUTO 03012G20KT CLR 16/05 A2959 RMK AO1 SLP005
METAR CYNL 151100Z AUTO 03014KT CLR 16/05 A2960 RMK AO1 SLP007
METAR CYNL 151000Z AUTO 03012KT CLR 16/06 A2960 RMK AO1 SLP010
METAR CYNL 150900Z AUTO 03011G18KT CLR 17/06 A2962 RMK AO1 SLP015
METAR CYNL 150800Z AUTO 04012KT CLR 18/06 A2964 RMK AO1 PRESFR SLP022
METAR CYNL 150700Z AUTO 05012G19KT CLR 19/05 A2966 RMK AO1 SLP027
METAR CYNL 150600Z AUTO 05009G16KT CLR 19/05 A2968 RMK AO1 SLP032
METAR CYNL 150500Z AUTO 04010KT SCT180 19/05 A2969 RMK AO1 SLP037
METAR CYNL 150400Z AUTO 05009G16KT BKN180 21/04 A2970 RMK AO1 SLP038
METAR CYNL 150300Z AUTO 06010G15KT BKN170 22/03 A2969 RMK AO1 SLP038
METAR CYNL 150200Z AUTO 06010G17KT FEW170 23/03 A2970 RMK AO1 SLP041
METAR CYNL 150100Z AUTO 06011G20KT FEW100 23/04 A2971 RMK AO1 SLP045
METAR CYNL 150000Z AUTO 06011G17KT BKN100 24/03 A2973 RMK AO1 SLP052
METAR CYNL 142300Z AUTO 08012G18KT FEW100 24/04 A2975 RMK AO1 SLP062
METAR CYNL 142200Z AUTO 07016G24KT FEW190 24/04 A2975 RMK AO1 SLP065
METAR CYNL 142100Z AUTO 08014KT FEW160 24/04 A2977 RMK AO1 SLP073
METAR CYNL 142000Z AUTO 09011G19KT FEW170 SCT210 23/05 A2978 RMK AO1 SLP075
METAR CYNL 141900Z AUTO 07012G18KT CLR 23/06 A2979 RMK AO1 SLP077
METAR CYNL 141800Z AUTO 10011G21KT CLR 23/06 A2980 RMK AO1 SLP082
SPECI CYNL 141701Z AUTO 11010KT CLR 22/07 A2981 RMK AO1 WSHFT (17)01 SLP087
METAR CYNL 141700Z AUTO 11011KT CLR 22/07 A2981 RMK AO1 SLP086
METAR CYNL 141600Z AUTO 09011KT CLR 21/06 A2982 RMK AO1 SLP090
METAR CYNL 141500Z AUTO 08008KT CLR 21/08 A2983 RMK AO1 SLP089
METAR CYNL 141400Z AUTO 07006KT CLR 19/09 A2983 RMK AO1 SLP090
METAR CYNL 141300Z AUTO 07006KT CLR 16/09 A2984 RMK AO1 SLP096
METAR CYNL 141200Z AUTO 07006KT CLR 14/10 A2985 RMK AO1 SLP102
METAR CYNL 141100Z AUTO 06006KT CLR 13/10 A2984 RMK AO1 SLP100
METAR CYNL 141000Z AUTO 05005KT CLR 12/09 A2984 RMK AO1 SLP100
METAR CYNL 140900Z AUTO 03006KT CLR 12/09 A2983 RMK AO1 SLP096
METAR CYNL 140800Z AUTO 03005KT CLR 12/08 A2984 RMK AO1 SLP096
METAR CYNL 140700Z AUTO 03004KT CLR 11/10 A2985 RMK AO1 SLP100
METAR CYNL 140600Z AUTO 05003KT CLR 13/10 A2984 RMK AO1 SLP095
METAR CYNL 140500Z AUTO 10004KT SCT110 14/10 A2984 RMK AO1 SLP095
METAR CYNL 140400Z AUTO 09004KT CLR 16/11 A2984 RMK AO1 SLP094
METAR CYNL 140300Z AUTO 00000KT BKN110 18/12 A2982 RMK AO1 SLP089
METAR CYNL 140200Z AUTO 07004KT 040V110 FEW062 SCT100 19/11 A2983 RMK AO1 SLP089
METAR CYNL 140100Z AUTO 09004KT SCT100 19/12 A2982 RMK AO1 SLP090
METAR CYNL 140000Z AUTO 15005KT CLR 19/13 A2981 RMK AO1 SLP089
METAR CYNL 132300Z AUTO 17006KT CLR 17/13 A2982 RMK AO1 SLP094
METAR CYNL 132200Z AUTO 20005KT CLR 20/09 A2980 RMK AO1 SLP086
METAR CYNL 132100Z AUTO 19004KT FEW200 22/08 A2980 RMK AO1 SLP084
METAR CYNL 132000Z AUTO 18006KT FEW180 21/08 A2980 RMK AO1 SLP085
METAR CYNL 131900Z AUTO 13008KT CLR 22/09 A2979 RMK AO1 SLP081
METAR CYNL 131800Z AUTO 16007KT FEW130 21/09 A2980 RMK AO1 SLP084
METAR CYNL 131700Z AUTO 17007KT FEW100 19/10 A2980 RMK AO1 SLP085
METAR CYNL 131600Z AUTO 15006KT FEW110 19/10 A2980 RMK AO1 SLP084
METAR CYNL 131500Z AUTO 17004KT CLR 18/11 A2979 RMK AO1 SLP081
METAR CYNL 131400Z AUTO 17002KT CLR 16/11 A2978 RMK AO1 SLP081
METAR CYNL 131300Z AUTO 16003KT FEW120 14/12 A2978 RMK AO1 SLP081
METAR CYNL 131200Z AUTO 00000KT CLR 12/12 A2977 RMK AO1 SLP080
METAR CYNL 131100Z AUTO 21003KT CLR 11/11 A2976 RMK AO1 SLP078
METAR CYNL 131000Z AUTO 19004KT CLR 11/11 A2975 RMK AO1 SLP070
METAR CYNL 130900Z AUTO 00000KT CLR 09/09 A2974 RMK AO1 SLP063
METAR CYNL 130800Z AUTO 19003KT FEW100 11/11 A2974 RMK AO1 SLP064
METAR CYNL 130700Z AUTO 17003KT FEW100 11/11 A2974 RMK AO1 SLP063
METAR CYNL 130600Z AUTO 11004KT FEW100 12/12 A2973 RMK AO1 SLP059
METAR CYNL 130500Z AUTO 15003KT SCT096 13/13 A2972 RMK AO1 SLP054
METAR CYNL 130400Z AUTO 12002KT BKN092 14/12 A2971 RMK AO1 SLP054
METAR CYNL 130300Z AUTO 35005KT CLR 14/13 A2971 RMK AO1 SLP056
METAR CYNL 130200Z AUTO 14006KT FEW180 15/13 A2971 RMK AO1 PRESRR SLP055
METAR CYNL 130100Z AUTO 06005KT FEW066 14/13 A2969 RMK AO1 SLP050
SPECI CYNL 130034Z AUTO 04003KT FEW007 OVC064 13/13 A2971 RMK AO1 PRESRR SLP059
METAR CYNL 130000Z AUTO 24011KT 180V290 14/10 A2969 RMK AO1 PRESRR SLP053
SPECI CYNL 122326Z AUTO 08010G17KT FEW003 SCT022 BKN060 16/10 A2967 RMK AO1 WSHFT (23)26 SLP044
SPECI CYNL 122321Z AUTO 13011G17KT FEW002 SCT038 BKN062 17/12 A2967 RMK AO1 SLP043
SPECI CYNL 122320Z AUTO 13007G15KT VV028 17/12 A2966 RMK AO1 WSHFT (23)06 SLP041
SPECI CYNL 122316Z AUTO ///// FEW002 SCT058 BKN066 19/10 A2966 RMK AO1 WSHFT (23)06 SLP038
SPECI CYNL 122306Z AUTO 10011KT 040V160 BKN066 20/08 A2964 RMK AO1 WSHFT (23)06 SLP030
SPECI CYNL 122303Z AUTO 10010KT BKN066 20/08 A2963 RMK AO1 WSHFT (23)03 SLP028
METAR CYNL 122300Z AUTO 05009KT BKN066 20/08 A2964 RMK AO1 SLP029
METAR CYNL 122200Z AUTO 23008KT 190V260 BKN062 23/06 A2964 RMK AO1 SLP027
METAR CYNL 122100Z AUTO 22008KT FEW064 22/06 A2964 RMK AO1 SLP030
SPECI CYNL 122045Z AUTO 23010G18KT SCT064 23/06 A2965 RMK AO1 WSHFT (20)45 SLP030
METAR CYNL 122000Z AUTO 20008KT FEW054 22/08 A2965 RMK AO1 SLP032
METAR CYNL 121900Z AUTO 18012G18KT FEW050 22/08 A2965 RMK AO1 SLP033
METAR CYNL 121800Z AUTO 18011G17KT FEW045 20/09 A2967 RMK AO1 SLP041
METAR CYNL 121700Z AUTO 17009KT CLR 19/10 A2967 RMK AO1 SLP043
METAR CYNL 121600Z AUTO 19008KT FEW110 17/10 A2967 RMK AO1 SLP044
METAR CYNL 121500Z AUTO 16007KT CLR 16/11 A2967 RMK AO1 SLP046
METAR CYNL 121400Z AUTO 17008KT SCT012 14/11 A2968 RMK AO1 SLP049
SPECI CYNL 121351Z AUTO 19007KT SCT011 13/11 A2968 RMK AO1 SLP049
SPECI CYNL 121301Z AUTO 20007KT SCT009 OVC011 13/11 A2968 RMK AO1 SLP051
METAR CYNL 121300Z AUTO 20008KT OVC010 13/11 A2968 RMK AO1 SLP051
SPECI CYNL 121250Z AUTO 19007KT BKN008 OVC011 12/11 A2968 RMK AO1 SLP050
SPECI CYNL 121246Z AUTO 18008KT SCT008 OVC011 12/11 A2968 RMK AO1 SLP049
SPECI CYNL 121212Z AUTO 18006KT BKN007 OVC012 12/12 A2967 RMK AO1 SLP047
METAR CYNL 121200Z AUTO 17008KT FEW005 SCT007 OVC012 12/12 A2967 RMK AO1 SLP046
SPECI CYNL 121147Z AUTO 18005KT SCT006 OVC012 12/12 A2966 RMK AO1 SLP046
METAR CYNL 121100Z AUTO 17009KT OVC006 11/11 A2966 RMK AO1 SLP046
SPECI CYNL 121016Z AUTO 17006KT SCT007 BKN009 OVC013 11/11 A2966 RMK AO1 SLP045
SPECI CYNL 121015Z AUTO 17006KT SCT007 BKN010 OVC013 11/11 A2966 RMK AO1 SLP045
SPECI CYNL 121006Z AUTO 17005KT BKN007 BKN011 OVC014 11/11 A2966 RMK AO1 SLP045
METAR CYNL 121000Z AUTO 17006KT SCT007 BKN011 OVC014 11/11 A2966 RMK AO1 SLP045
SPECI CYNL 120950Z AUTO 16004KT FEW008 SCT011 BKN012 11/11 A2966 RMK AO1 SLP045
SPECI CYNL 120948Z AUTO 17005KT BKN011 OVC017 11/11 A2966 RMK AO1 SLP045
SPECI CYNL 120940Z AUTO 17006KT SCT012 OVC018 12/11 A2966 RMK AO1 SLP045
SPECI CYNL 120939Z AUTO 17006KT FEW007 BKN014 OVC018 12/11 A2966 RMK AO1 SLP045
SPECI CYNL 120918Z AUTO 18007KT SCT007 OVC020 12/11 A2967 RMK AO1 SLP046
METAR CYNL 120900Z AUTO 18006KT OVC007 12/11 A2967 RMK AO1 SLP048
METAR CYNL 120800Z AUTO 17008KT OVC008 11/10 A2967 RMK AO1 SLP047
SPECI CYNL 120733Z AUTO 16006KT BKN009 OVC011 11/09 A2967 RMK AO1 SLP045
SPECI CYNL 120707Z AUTO 15006KT BKN012 OVC016 11/09 A2967 RMK AO1 SLP045
METAR CYNL 120700Z AUTO 15007KT OVC015 11/09 A2968 RMK AO1 SLP045
SPECI CYNL 120615Z AUTO 13006KT OVC024 11/09 A2968 RMK AO1 SLP047
METAR CYNL 120600Z AUTO 13007KT OVC026 11/09 A2969 RMK AO1 SLP049
METAR CYNL 120500Z AUTO 14008KT OVC027 11/09 A2970 RMK AO1 SLP054
SPECI CYNL 120430Z AUTO 13004KT OVC029 11/09 A RMK AO1 SLPNO
METAR CYNL 120400Z AUTO 16006KT FEW025 OVC036 11/09 A RMK AO1 SLPNO
METAR CYNL 120300Z AUTO 14010G16KT OVC040 12/07 A RMK AO1 SLPNO
METAR CYNL 120200Z AUTO 14005KT OVC046 12/08 A RMK AO1 SLPNO
METAR CYNL 120100Z AUTO 15006KT SCT058 13/09 A RMK AO1 SLPNO
METAR CYNL 120000Z AUTO 11005KT FEW029 BKN050 13/09 A RMK AO1 SLPNO
METAR CYNL 112300Z AUTO 10007KT BKN058 14/07 A RMK AO1 SLPNO
METAR CYNL 112200Z AUTO 12007KT FEW031 14/08 A RMK AO1 SLPNO
METAR CYNL 112100Z AUTO 18013G18KT SCT046 15/06 A RMK AO1 SLPNO
METAR CYNL 112000Z AUTO 13012G23KT FEW088 18/04 A RMK AO1 SLPNO
METAR CYNL 111900Z AUTO 13014G22KT FEW110 18/04 A RMK AO1 SLPNO
METAR CYNL 111800Z AUTO 13013G20KT SCT120 17/04 A RMK AO1 SLPNO
METAR CYNL 111700Z AUTO 13013G19KT 9SM FEW210 17/04 A2975 RMK AO1 SLP069
METAR CYNL 111600Z AUTO 12009G16KT 9SM CLR 17/04 A2976 RMK AO1 SLP072
METAR CYNL 111500Z AUTO 12010KT 9SM CLR 16/04 A2977 RMK AO1 SLP074
METAR CYNL 111400Z AUTO 13011KT 9SM FEW140 15/04 A2978 RMK AO1 SLP076
METAR CYNL 111300Z AUTO 13007KT 9SM CLR 14/04 A2979 RMK AO1 SLP078
METAR CYNL 111200Z AUTO 09006KT 9SM CLR 11/05 A2979 RMK AO1 SLP081
METAR CYNL 111100Z AUTO 08004KT 9SM FEW096 10/04 A2979 RMK AO1 SLP082
METAR CYNL 111000Z AUTO 09004KT 9SM CLR 11/05 A2980 RMK AO1 SLP083
METAR CYNL 110900Z AUTO 10004KT 9SM FEW180 11/04 A2980 RMK AO1 SLP083
METAR CYNL 110800Z AUTO 08004KT 9SM BKN094 12/04 A2980 RMK AO1 SLP083
METAR CYNL 110700Z AUTO 08005KT 9SM CLR 13/03 A2980 RMK AO1 SLP081
METAR CYNL 110600Z AUTO 09006KT 9SM CLR 15/01 A2980 RMK AO1 SLP080
METAR CYNL 110500Z AUTO 09004KT 9SM SCT100 BKN200 16/01 A2980 RMK AO1 SLP079
METAR CYNL 110400Z AUTO 11005KT 9SM BKN100 17/00 A2980 RMK AO1 SLP080
METAR CYNL 110300Z AUTO 13007KT 9SM SCT100 BKN200 19/00 A2980 RMK AO1 SLP077
METAR CYNL 110200Z AUTO 13011KT 9SM FEW100 21/M00 A2980 RMK AO1 SLP077
METAR CYNL 110100Z AUTO 15009G17KT 9SM CLR 21/M00 A2981 RMK AO1 SLP081
METAR CYNL 110000Z AUTO 12013G20KT 9SM CLR 22/00 A2981 RMK AO1 SLP083
METAR CYNL 102300Z AUTO 16016G21KT 9SM CLR 22/01 A2982 RMK AO1 SLP090
METAR CYNL 102200Z AUTO 14015G23KT 9SM FEW080 22/01 A2983 RMK AO1 SLP096
METAR CYNL 102100Z AUTO 14015G23KT 9SM FEW110 22/02 A2985 RMK AO1 SLP102
SPECI CYNL 102031Z AUTO 11014G22KT 9SM FEW072 22/02 A2985 RMK AO1 WSHFT (20)31 SLP101
SPECI CYNL 102017Z AUTO 16014G25KT 9SM CLR 22/02 A2986 RMK AO1 WSHFT (20)17 SLP103
METAR CYNL 102000Z AUTO 14013G22KT 9SM FEW170 22/02 A2986 RMK AO1 SLP103
METAR CYNL 101900Z AUTO 14011G20KT 9SM FEW072 22/02 A2987 RMK AO1 SLP107
METAR CYNL 101800Z AUTO 14017KT 9SM FEW074 21/02 A2987 RMK AO1 SLP110
METAR CYNL 101700Z AUTO 18012G17KT 9SM SCT068 20/02 A2988 RMK AO1 SLP112
METAR CYNL 101600Z AUTO 17014G20KT 9SM CLR 20/03 A2990 RMK AO1 SLP115
METAR CYNL 101500Z AUTO 15012KT 9SM CLR 19/04 A2991 RMK AO1 SLP117
METAR CYNL 101400Z AUTO 16009KT 9SM CLR 18/05 A2991 RMK AO1 SLP119
METAR CYNL 101300Z AUTO 16005KT 9SM CLR 15/05 A2993 RMK AO1 SLP124
METAR CYNL 101200Z AUTO 12004KT 9SM CLR 12/04 A2993 RMK AO1 SLP129
METAR CYNL 101100Z AUTO 07002KT 9SM CLR 10/04 A2993 RMK AO1 SLP130
METAR CYNL 101000Z AUTO 05002KT 9SM CLR 10/04 A2994 RMK AO1 SLP132
METAR CYNL 100900Z AUTO 13005KT 9SM CLR 11/03 A2994 RMK AO1 SLP131
METAR CYNL 100800Z AUTO 13006KT 9SM CLR 12/04 A2994 RMK AO1 SLP132
METAR CYNL 100700Z AUTO 13006KT 9SM CLR 12/03 A2995 RMK AO1 SLP134
METAR CYNL 100600Z AUTO 10004KT 9SM CLR 13/04 A2995 RMK AO1 SLP135
METAR CYNL 100500Z AUTO 13004KT 9SM CLR 15/03 A2995 RMK AO1 SLP133
METAR CYNL 100400Z AUTO 14006KT 9SM CLR 17/02 A2995 RMK AO1 SLP132
METAR CYNL 100300Z AUTO 13009KT 9SM CLR 20/01 A2995 RMK AO1 SLP129
METAR CYNL 100200Z AUTO 13012G18KT 9SM CLR 21/01 A2995 RMK AO1 SLP129
METAR CYNL 100100Z AUTO 13012G19KT 9SM CLR 22/00 A2995 RMK AO1 SLP130
METAR CYNL 100000Z AUTO 13012G17KT 9SM CLR 22/01 A2996 RMK AO1 WSHFT (23)50 SLP134
SPECI CYNL 092350Z AUTO 11010G18KT 9SM CLR 22/01 A2996 RMK AO1 WSHFT (23)50 SLP137
SPECI CYNL 092339Z AUTO 16010G19KT 9SM CLR 22/01 A2996 RMK AO1 WSHFT (23)39 SLP138
METAR CYNL 092300Z AUTO 13011G17KT 9SM CLR 22/M00 A2996 RMK AO1 SLP140
SPECI CYNL 092242Z AUTO 14013KT 9SM CLR 22/01 A2997 RMK AO1 WSHFT (22)42 SLP144
SPECI CYNL 092238Z AUTO 09012KT 9SM CLR 22/00 A2996 RMK AO1 WSHFT (22)38 SLP144
SPECI CYNL 092204Z AUTO 11011G18KT 9SM CLR 22/00 A2997 RMK AO1 WSHFT (22)04 SLP147
METAR CYNL 092200Z AUTO 12012KT 9SM CLR 23/00 A2997 RMK AO1 WSHFT (21)55 SLP147
SPECI CYNL 092155Z AUTO 16011G17KT 9SM CLR 22/00 A2997 RMK AO1 WSHFT (21)55 SLP149
SPECI CYNL 092133Z AUTO 16010G17KT 9SM CLR 22/00 A2998 RMK AO1 WSHFT (21)33 SLP149
SPECI CYNL 092128Z AUTO 10011G17KT 9SM CLR 22/00 A2998 RMK AO1 WSHFT (21)28 SLP150
SPECI CYNL 092120Z AUTO 15010G19KT 9SM CLR 22/00 A2998 RMK AO1 WSHFT (21)20 SLP151
SPECI CYNL 092101Z AUTO 15011G17KT 9SM CLR 22/00 A2998 RMK AO1 WSHFT (21)01 SLP153
METAR CYNL 092100Z AUTO 15013KT 9SM CLR 22/01 A2998 RMK AO1 WSHFT (20)46 SLP152
SPECI CYNL 092046Z AUTO 12013G19KT 9SM CLR 22/00 A2998 RMK AO1 WSHFT (20)46 SLP152
SPECI CYNL 092029Z AUTO 16012G18KT 9SM CLR 22/01 A2998 RMK AO1 WSHFT (20)29 SLP153
METAR CYNL 092000Z AUTO 14013G19KT 100V180 9SM CLR 22/00 A2999 RMK AO1 WSHFT (20)00 SLP154
SPECI CYNL 091945Z AUTO 13012KT 9SM CLR 22/00 A2999 RMK AO1 WSHFT (19)45 SLP153
SPECI CYNL 091939Z AUTO 18011G18KT 9SM CLR 22/00 A2999 RMK AO1 WSHFT (19)39 SLP153
METAR CYNL 091900Z AUTO 12012G18KT 9SM CLR 22/00 A3000 RMK AO1 SLP156
SPECI CYNL 091822Z AUTO 15011G20KT 9SM CLR 21/01 A3000 RMK AO1 WSHFT (18)22 SLP155
METAR CYNL 091800Z AUTO 13011G19KT 9SM CLR 21/01 A3000 RMK AO1 SLP156
SPECI CYNL 091731Z AUTO 15012G18KT 9SM CLR 21/00 A3001 RMK AO1 WSHFT (17)31 SLP157
SPECI CYNL 091722Z AUTO 10011KT 9SM CLR 21/01 A3000 RMK AO1 WSHFT (17)22 SLP157
METAR CYNL 091700Z AUTO 17008G18KT 9SM CLR 20/01 A3001 RMK AO1 SLP159
METAR CYNL 091600Z AUTO 14010G17KT 9SM CLR 20/02 A3002 RMK AO1 SLP161
METAR CYNL 091500Z AUTO 14006KT 9SM CLR 19/03 A3003 RMK AO1 SLP161
METAR CYNL 091400Z AUTO 17005KT 9SM CLR 17/05 A3003 RMK AO1 SLP160
METAR CYNL 091300Z AUTO 00000KT 9SM CLR 14/05 A3004 RMK AO1 SLP164
METAR CYNL 091200Z AUTO 08002KT 8SM CLR 11/04 A3004 RMK AO1 SLP167
METAR CYNL 091100Z AUTO 06002KT 9SM CLR 07/03 A3004 RMK AO1 SLP171
METAR CYNL 091000Z AUTO 00000KT 9SM CLR 05/03 A3003 RMK AO1 SLP169
METAR CYNL 090900Z AUTO 00000KT 9SM CLR 05/03 A3003 RMK AO1 SLP170
METAR CYNL 090800Z AUTO 00000KT 9SM CLR 07/04 A3003 RMK AO1 SLP168
METAR CYNL 090700Z AUTO 00000KT 9SM CLR 09/02 A3003 RMK AO1 SLP165
METAR CYNL 090600Z AUTO 13003KT 9SM CLR 09/03 A3002 RMK AO1 SLP165
METAR CYNL 090500Z AUTO 00000KT 9SM CLR 11/04 A3002 RMK AO1 SLP163
METAR CYNL 090400Z AUTO 10003KT 9SM CLR 15/04 A3002 RMK AO1 SLP159
METAR CYNL 090300Z AUTO 12004KT 9SM CLR 18/01 A3002 RMK AO1 SLP155
METAR CYNL 090200Z AUTO 16005KT 9SM CLR 20/01 A3002 RMK AO1 SLP153
METAR CYNL 090100Z AUTO 12006KT 9SM CLR 21/M00 A3002 RMK AO1 SLP155
METAR CYNL 090000Z AUTO 11009KT 070V160 9SM CLR 21/M00 A3002 RMK AO1 SLP159
METAR CYNL 082300Z AUTO 13009KT 9SM CLR 21/M01 A3003 RMK AO1 SLP167
METAR CYNL 082200Z AUTO 18003KT 9SM CLR 20/M01 A3004 RMK AO1 SLP174
METAR CYNL 082100Z AUTO 15011KT 110V190 9SM CLR 20/M01 A3005 RMK AO1 SLP179
METAR CYNL 082000Z AUTO 15007KT 9SM CLR 20/M03 A3006 RMK AO1 SLP182
METAR CYNL 081900Z AUTO 06008KT 340V140 9SM CLR 20/M04 A3007 RMK AO1 SLP185
METAR CYNL 081800Z AUTO 03004G16KT 9SM CLR 18/M03 A3008 RMK AO1 SLP187
METAR CYNL 081700Z AUTO 12007KT 080V160 9SM CLR 18/M03 A3008 RMK AO1 SLP186
METAR CYNL 081600Z AUTO 10008KT 070V140 9SM CLR 18/M04 A3009 RMK AO1 SLP190
METAR CYNL 081500Z AUTO 14005KT 9SM CLR 18/M03 A3010 RMK AO1 SLP189
METAR CYNL 081400Z AUTO 09004KT 9SM CLR 16/M01 A3011 RMK AO1 SLP190
METAR CYNL 081300Z AUTO 00000KT 9SM CLR 13/01 A3011 RMK AO1 SLP191
METAR CYNL 081200Z AUTO 00000KT 9SM CLR 09/03 A3010 RMK AO1 SLP192
METAR CYNL 081100Z AUTO 07002KT 9SM CLR 05/02 A3010 RMK AO1 SLP195
METAR CYNL 081000Z AUTO 00000KT 9SM CLR 03/01 A3010 RMK AO1 SLP197
METAR CYNL 080900Z AUTO 00000KT 9SM CLR 04/01 A3010 RMK AO1 SLP196
METAR CYNL 080800Z AUTO 00000KT 9SM CLR 05/00 A3010 RMK AO1 SLP196
METAR CYNL 080700Z AUTO 04003KT 9SM CLR 06/01 A3010 RMK AO1 SLP196
METAR CYNL 080600Z AUTO 10002KT 9SM CLR 09/01 A3010 RMK AO1 SLP191
METAR CYNL 080500Z AUTO 09004KT 9SM CLR 09/02 A3010 RMK AO1 SLP190
METAR CYNL 080400Z AUTO 11002KT 9SM CLR 14/02 A3010 RMK AO1 SLP186
METAR CYNL 080300Z AUTO 11004KT 9SM CLR 17/M00 A3009 RMK AO1 SLP180
METAR CYNL 080200Z AUTO 12006KT 9SM CLR 18/M01 A3008 RMK AO1 SLP177
METAR CYNL 080100Z AUTO 13007KT 9SM CLR 19/M01 A3008 RMK AO1 SLP178
METAR CYNL 080000Z AUTO 11010KT 9SM CLR 20/M01 A3008 RMK AO1 SLP181
METAR CYNL 072300Z AUTO 10008KT 9SM CLR 20/M01 A3009 RMK AO1 SLP185
METAR CYNL 072200Z AUTO 08008G15KT 9SM CLR 20/M01 A3010 RMK AO1 SLP193
METAR CYNL 072100Z AUTO 09011KT 9SM CLR 19/M00 A3010 RMK AO1 SLP197
METAR CYNL 072000Z AUTO 08009KT 9SM CLR 19/M02 A3010 RMK AO1 WSHFT (19)52 SLP197
SPECI CYNL 071952Z AUTO 10010KT 060V130 9SM CLR 20/M01 A3010 RMK AO1 WSHFT (19)52 SLP196
METAR CYNL 071900Z AUTO 06008KT 9SM CLR 19/M00 A3011 RMK AO1 SLP198
SPECI CYNL 071809Z AUTO 12010G18KT 9SM CLR 19/00 A3011 RMK AO1 WSHFT (18)09 SLP198
METAR CYNL 071800Z AUTO 10009KT 9SM CLR 19/00 A3011 RMK AO1 SLP198
METAR CYNL 071700Z AUTO 07009KT 9SM CLR 18/02 A3011 RMK AO1 SLP197
METAR CYNL 071600Z AUTO 05008KT 9SM CLR 19/02 A3010 RMK AO1 SLP192
METAR CYNL 071500Z AUTO 32005KT 9SM CLR 19/03 A3011 RMK AO1 SLP191
METAR CYNL 071400Z AUTO 33005KT 9SM FEW090 17/03 A3012 RMK AO1 SLP192
METAR CYNL 071300Z AUTO 00000KT 9SM FEW076 BKN090 13/03 A3012 RMK AO1 SLP195